<?xml version="1.0" encoding="UTF-8" standalone="yes"?>
<gpx
 xmlns="http://www.topografix.com/GPX/1/1"
 creator="OziExplorer Version 3956f - http://www.oziexplorer.com"
 version="1.1"
 xmlns:xsi="http://www.w3.org/2001/XMLSchema-instance"
 xsi:schemaLocation="http://www.topografix.com/GPX/1/1 http://www.topografix.com/GPX/1/1/gpx.xsd">
<metadata>
 <time>2018-05-23T07:00:11Z</time>
 <bounds minlat="31.766866" minlon="34.955207" maxlat="31.800595" maxlon="35.000231"/>
</metadata>
<trk>
 <name>Zora-Eshtaol_new1</name>
 <desc>Zora-Eshtaol_new1</desc>
<trkseg>
<trkpt lat="31.7954402" lon="34.9739348">
<ele>216.000000</ele>
<time>2010-01-01T00:00:00.000Z</time>
</trkpt>
<trkpt lat="31.7955248" lon="34.9740850">
<ele>211.000000</ele>
<time>2010-01-01T00:00:09.000Z</time>
</trkpt>
<trkpt lat="31.7954975" lon="34.9744230">
<ele>213.000000</ele>
<time>2010-01-01T00:00:20.000Z</time>
</trkpt>
<trkpt lat="31.7954174" lon="34.9746751">
<ele>213.000000</ele>
<time>2010-01-01T00:00:29.000Z</time>
</trkpt>
<trkpt lat="31.7953561" lon="34.9748843">
<ele>216.000000</ele>
<time>2010-01-01T00:00:39.000Z</time>
</trkpt>
<trkpt lat="31.7953179" lon="34.9750428">
<ele>216.000000</ele>
<time>2010-01-01T00:00:44.000Z</time>
</trkpt>
<trkpt lat="31.7953440" lon="34.9751682">
<ele>216.000000</ele>
<time>2010-01-01T00:00:49.000Z</time>
</trkpt>
<trkpt lat="31.7953719" lon="34.9753724">
<ele>216.000000</ele>
<time>2010-01-01T00:00:55.000Z</time>
</trkpt>
<trkpt lat="31.7957487" lon="34.9755430">
<ele>215.000000</ele>
<time>2010-01-01T00:01:09.000Z</time>
</trkpt>
<trkpt lat="31.7957925" lon="34.9756081">
<ele>216.000000</ele>
<time>2010-01-01T00:01:12.000Z</time>
</trkpt>
<trkpt lat="31.7958035" lon="34.9756623">
<ele>216.000000</ele>
<time>2010-01-01T00:01:14.000Z</time>
</trkpt>
<trkpt lat="31.7957582" lon="34.9758067">
<ele>216.000000</ele>
<time>2010-01-01T00:01:19.000Z</time>
</trkpt>
<trkpt lat="31.7956948" lon="34.9759166">
<ele>216.000000</ele>
<time>2010-01-01T00:01:24.000Z</time>
</trkpt>
<trkpt lat="31.7955210" lon="34.9763095">
<ele>216.000000</ele>
<time>2010-01-01T00:01:39.000Z</time>
</trkpt>
<trkpt lat="31.7954725" lon="34.9765045">
<ele>216.000000</ele>
<time>2010-01-01T00:01:46.000Z</time>
</trkpt>
<trkpt lat="31.7953779" lon="34.9767372">
<ele>217.000000</ele>
<time>2010-01-01T00:01:55.000Z</time>
</trkpt>
<trkpt lat="31.7953375" lon="34.9768760">
<ele>218.000000</ele>
<time>2010-01-01T00:02:00.000Z</time>
</trkpt>
<trkpt lat="31.7953858" lon="34.9769887">
<ele>219.000015</ele>
<time>2010-01-01T00:02:04.000Z</time>
</trkpt>
<trkpt lat="31.7953803" lon="34.9770165">
<ele>219.000015</ele>
<time>2010-01-01T00:02:05.000Z</time>
</trkpt>
<trkpt lat="31.7954384" lon="34.9771414">
<ele>220.000000</ele>
<time>2010-01-01T00:02:10.000Z</time>
</trkpt>
<trkpt lat="31.7955801" lon="34.9772671">
<ele>221.000000</ele>
<time>2010-01-01T00:02:17.000Z</time>
</trkpt>
<trkpt lat="31.7957311" lon="34.9773263">
<ele>222.000000</ele>
<time>2010-01-01T00:02:23.000Z</time>
</trkpt>
<trkpt lat="31.7958837" lon="34.9773627">
<ele>224.000000</ele>
<time>2010-01-01T00:02:29.000Z</time>
</trkpt>
<trkpt lat="31.7960613" lon="34.9773469">
<ele>225.999985</ele>
<time>2010-01-01T00:02:37.000Z</time>
</trkpt>
<trkpt lat="31.7962250" lon="34.9772589">
<ele>228.000000</ele>
<time>2010-01-01T00:02:44.000Z</time>
</trkpt>
<trkpt lat="31.7963185" lon="34.9771800">
<ele>229.000000</ele>
<time>2010-01-01T00:02:48.000Z</time>
</trkpt>
<trkpt lat="31.7965300" lon="34.9769776">
<ele>230.000000</ele>
<time>2010-01-01T00:02:59.000Z</time>
</trkpt>
<trkpt lat="31.7966740" lon="34.9768110">
<ele>231.000000</ele>
<time>2010-01-01T00:03:07.000Z</time>
</trkpt>
<trkpt lat="31.7969400" lon="34.9765647">
<ele>231.000000</ele>
<time>2010-01-01T00:03:21.000Z</time>
</trkpt>
<trkpt lat="31.7970997" lon="34.9763832">
<ele>232.000000</ele>
<time>2010-01-01T00:03:30.000Z</time>
</trkpt>
<trkpt lat="31.7972189" lon="34.9763067">
<ele>232.000000</ele>
<time>2010-01-01T00:03:35.000Z</time>
</trkpt>
<trkpt lat="31.7974717" lon="34.9760484">
<ele>232.000000</ele>
<time>2010-01-01T00:03:49.000Z</time>
</trkpt>
<trkpt lat="31.7977635" lon="34.9759089">
<ele>232.999985</ele>
<time>2010-01-01T00:04:01.000Z</time>
</trkpt>
<trkpt lat="31.7980735" lon="34.9758392">
<ele>234.000000</ele>
<time>2010-01-01T00:04:14.000Z</time>
</trkpt>
<trkpt lat="31.7983881" lon="34.9758553">
<ele>232.999985</ele>
<time>2010-01-01T00:04:27.000Z</time>
</trkpt>
<trkpt lat="31.7986297" lon="34.9759948">
<ele>232.999985</ele>
<time>2010-01-01T00:04:37.000Z</time>
</trkpt>
<trkpt lat="31.7988395" lon="34.9761772">
<ele>234.000000</ele>
<time>2010-01-01T00:04:48.000Z</time>
</trkpt>
<trkpt lat="31.7990446" lon="34.9764454">
<ele>234.000000</ele>
<time>2010-01-01T00:05:00.000Z</time>
</trkpt>
<trkpt lat="31.7993664" lon="34.9768906">
<ele>235.000000</ele>
<time>2010-01-01T00:05:19.000Z</time>
</trkpt>
<trkpt lat="31.7994367" lon="34.9769657">
<ele>235.000000</ele>
<time>2010-01-01T00:05:24.000Z</time>
</trkpt>
<trkpt lat="31.7996556" lon="34.9772554">
<ele>236.000000</ele>
<time>2010-01-01T00:05:37.000Z</time>
</trkpt>
<trkpt lat="31.7998698" lon="34.9774432">
<ele>236.000000</ele>
<time>2010-01-01T00:05:48.000Z</time>
</trkpt>
<trkpt lat="31.7999884" lon="34.9775129">
<ele>235.000000</ele>
<time>2010-01-01T00:05:53.000Z</time>
</trkpt>
<trkpt lat="31.8002847" lon="34.9774968">
<ele>232.999985</ele>
<time>2010-01-01T00:06:05.000Z</time>
</trkpt>
<trkpt lat="31.8004215" lon="34.9774378">
<ele>232.999985</ele>
<time>2010-01-01T00:06:11.000Z</time>
</trkpt>
<trkpt lat="31.8005081" lon="34.9777382">
<ele>234.000000</ele>
<time>2010-01-01T00:06:22.000Z</time>
</trkpt>
<trkpt lat="31.8005355" lon="34.9779528">
<ele>235.000000</ele>
<time>2010-01-01T00:06:29.000Z</time>
</trkpt>
<trkpt lat="31.8005948" lon="34.9781727">
<ele>236.000000</ele>
<time>2010-01-01T00:06:37.000Z</time>
</trkpt>
<trkpt lat="31.8005400" lon="34.9783658">
<ele>237.000015</ele>
<time>2010-01-01T00:06:44.000Z</time>
</trkpt>
<trkpt lat="31.8004124" lon="34.9785375">
<ele>238.000000</ele>
<time>2010-01-01T00:06:51.000Z</time>
</trkpt>
<trkpt lat="31.8001115" lon="34.9789988">
<ele>242.000000</ele>
<time>2010-01-01T00:07:11.000Z</time>
</trkpt>
<trkpt lat="31.8000112" lon="34.9791866">
<ele>243.000000</ele>
<time>2010-01-01T00:07:19.000Z</time>
</trkpt>
<trkpt lat="31.7999656" lon="34.9793636">
<ele>244.000015</ele>
<time>2010-01-01T00:07:25.000Z</time>
</trkpt>
<trkpt lat="31.7999109" lon="34.9795085">
<ele>246.000000</ele>
<time>2010-01-01T00:07:30.000Z</time>
</trkpt>
<trkpt lat="31.7998698" lon="34.9797177">
<ele>246.000000</ele>
<time>2010-01-01T00:07:38.000Z</time>
</trkpt>
<trkpt lat="31.7997650" lon="34.9799054">
<ele>250.999985</ele>
<time>2010-01-01T00:07:45.000Z</time>
</trkpt>
<trkpt lat="31.7995872" lon="34.9800771">
<ele>255.000000</ele>
<time>2010-01-01T00:07:55.000Z</time>
</trkpt>
<trkpt lat="31.7993227" lon="34.9803882">
<ele>259.000000</ele>
<time>2010-01-01T00:08:10.000Z</time>
</trkpt>
<trkpt lat="31.7991759" lon="34.9804587">
<ele>261.000000</ele>
<time>2010-01-01T00:08:16.000Z</time>
</trkpt>
<trkpt lat="31.7988121" lon="34.9804365">
<ele>268.000000</ele>
<time>2010-01-01T00:08:31.000Z</time>
</trkpt>
<trkpt lat="31.7987027" lon="34.9804419">
<ele>271.000000</ele>
<time>2010-01-01T00:08:35.000Z</time>
</trkpt>
<trkpt lat="31.7983790" lon="34.9805867">
<ele>276.000000</ele>
<time>2010-01-01T00:08:49.000Z</time>
</trkpt>
<trkpt lat="31.7982103" lon="34.9806886">
<ele>277.000000</ele>
<time>2010-01-01T00:08:56.000Z</time>
</trkpt>
<trkpt lat="31.7978455" lon="34.9808764">
<ele>276.000000</ele>
<time>2010-01-01T00:09:12.000Z</time>
</trkpt>
<trkpt lat="31.7976814" lon="34.9810105">
<ele>276.000000</ele>
<time>2010-01-01T00:09:20.000Z</time>
</trkpt>
<trkpt lat="31.7976252" lon="34.9810641">
<ele>276.000000</ele>
<time>2010-01-01T00:09:23.000Z</time>
</trkpt>
<trkpt lat="31.7975629" lon="34.9811232">
<ele>276.000000</ele>
<time>2010-01-01T00:09:26.000Z</time>
</trkpt>
<trkpt lat="31.7974580" lon="34.9813967">
<ele>280.000000</ele>
<time>2010-01-01T00:09:37.000Z</time>
</trkpt>
<trkpt lat="31.7974811" lon="34.9816892">
<ele>288.000000</ele>
<time>2010-01-01T00:09:47.000Z</time>
</trkpt>
<trkpt lat="31.7973805" lon="34.9817847">
<ele>287.000000</ele>
<time>2010-01-01T00:09:52.000Z</time>
</trkpt>
<trkpt lat="31.7971935" lon="34.9822034">
<ele>289.000000</ele>
<time>2010-01-01T00:10:08.000Z</time>
</trkpt>
<trkpt lat="31.7969905" lon="34.9827776">
<ele>291.000000</ele>
<time>2010-01-01T00:10:29.000Z</time>
</trkpt>
<trkpt lat="31.7968310" lon="34.9830521">
<ele>291.000000</ele>
<time>2010-01-01T00:10:40.000Z</time>
</trkpt>
<trkpt lat="31.7966698" lon="34.9832009">
<ele>289.000000</ele>
<time>2010-01-01T00:10:49.000Z</time>
</trkpt>
<trkpt lat="31.7965546" lon="34.9832589">
<ele>289.000000</ele>
<time>2010-01-01T00:10:54.000Z</time>
</trkpt>
<trkpt lat="31.7964372" lon="34.9832691">
<ele>287.000000</ele>
<time>2010-01-01T00:10:58.000Z</time>
</trkpt>
<trkpt lat="31.7963589" lon="34.9832444">
<ele>286.000000</ele>
<time>2010-01-01T00:11:02.000Z</time>
</trkpt>
<trkpt lat="31.7962720" lon="34.9831693">
<ele>285.000000</ele>
<time>2010-01-01T00:11:06.000Z</time>
</trkpt>
<trkpt lat="31.7961948" lon="34.9830196">
<ele>282.000000</ele>
<time>2010-01-01T00:11:12.000Z</time>
</trkpt>
<trkpt lat="31.7961326" lon="34.9829544">
<ele>281.000000</ele>
<time>2010-01-01T00:11:15.000Z</time>
</trkpt>
<trkpt lat="31.7960437" lon="34.9829210">
<ele>280.000000</ele>
<time>2010-01-01T00:11:19.000Z</time>
</trkpt>
<trkpt lat="31.7959397" lon="34.9829555">
<ele>280.000000</ele>
<time>2010-01-01T00:11:23.000Z</time>
</trkpt>
<trkpt lat="31.7957272" lon="34.9832549">
<ele>281.000000</ele>
<time>2010-01-01T00:11:37.000Z</time>
</trkpt>
<trkpt lat="31.7956667" lon="34.9833721">
<ele>281.000000</ele>
<time>2010-01-01T00:11:41.000Z</time>
</trkpt>
<trkpt lat="31.7956369" lon="34.9837407">
<ele>287.000000</ele>
<time>2010-01-01T00:11:54.000Z</time>
</trkpt>
<trkpt lat="31.7955526" lon="34.9839559">
<ele>290.000000</ele>
<time>2010-01-01T00:12:02.000Z</time>
</trkpt>
<trkpt lat="31.7953106" lon="34.9844594">
<ele>291.000000</ele>
<time>2010-01-01T00:12:22.000Z</time>
</trkpt>
<trkpt lat="31.7952277" lon="34.9847120">
<ele>289.000000</ele>
<time>2010-01-01T00:12:31.000Z</time>
</trkpt>
<trkpt lat="31.7951771" lon="34.9847942">
<ele>289.000000</ele>
<time>2010-01-01T00:12:34.000Z</time>
</trkpt>
<trkpt lat="31.7950101" lon="34.9848555">
<ele>286.000000</ele>
<time>2010-01-01T00:12:41.000Z</time>
</trkpt>
<trkpt lat="31.7947580" lon="34.9849175">
<ele>283.000000</ele>
<time>2010-01-01T00:12:52.000Z</time>
</trkpt>
<trkpt lat="31.7946335" lon="34.9850212">
<ele>283.000000</ele>
<time>2010-01-01T00:12:58.000Z</time>
</trkpt>
<trkpt lat="31.7945391" lon="34.9851453">
<ele>284.000000</ele>
<time>2010-01-01T00:13:03.000Z</time>
</trkpt>
<trkpt lat="31.7943398" lon="34.9854589">
<ele>285.000000</ele>
<time>2010-01-01T00:13:17.000Z</time>
</trkpt>
<trkpt lat="31.7938918" lon="34.9859406">
<ele>288.000000</ele>
<time>2010-01-01T00:13:41.000Z</time>
</trkpt>
<trkpt lat="31.7937805" lon="34.9861220">
<ele>289.000000</ele>
<time>2010-01-01T00:13:49.000Z</time>
</trkpt>
<trkpt lat="31.7935927" lon="34.9865712">
<ele>290.000000</ele>
<time>2010-01-01T00:14:06.000Z</time>
</trkpt>
<trkpt lat="31.7935303" lon="34.9866768">
<ele>290.000000</ele>
<time>2010-01-01T00:14:10.000Z</time>
</trkpt>
<trkpt lat="31.7934603" lon="34.9867483">
<ele>290.000000</ele>
<time>2010-01-01T00:14:14.000Z</time>
</trkpt>
<trkpt lat="31.7931540" lon="34.9869572">
<ele>289.000000</ele>
<time>2010-01-01T00:14:28.000Z</time>
</trkpt>
<trkpt lat="31.7930923" lon="34.9870343">
<ele>291.000000</ele>
<time>2010-01-01T00:14:31.000Z</time>
</trkpt>
<trkpt lat="31.7926239" lon="34.9873759">
<ele>298.000000</ele>
<time>2010-01-01T00:14:53.000Z</time>
</trkpt>
<trkpt lat="31.7923721" lon="34.9876531">
<ele>299.000000</ele>
<time>2010-01-01T00:15:07.000Z</time>
</trkpt>
<trkpt lat="31.7922132" lon="34.9878013">
<ele>299.000000</ele>
<time>2010-01-01T00:15:15.000Z</time>
</trkpt>
<trkpt lat="31.7921535" lon="34.9879342">
<ele>300.000000</ele>
<time>2010-01-01T00:15:21.000Z</time>
</trkpt>
<trkpt lat="31.7921300" lon="34.9883386">
<ele>306.000000</ele>
<time>2010-01-01T00:15:34.000Z</time>
</trkpt>
<trkpt lat="31.7920357" lon="34.9884626">
<ele>306.000000</ele>
<time>2010-01-01T00:15:40.000Z</time>
</trkpt>
<trkpt lat="31.7916706" lon="34.9886512">
<ele>304.000000</ele>
<time>2010-01-01T00:15:56.000Z</time>
</trkpt>
<trkpt lat="31.7914088" lon="34.9887567">
<ele>302.000000</ele>
<time>2010-01-01T00:16:07.000Z</time>
</trkpt>
<trkpt lat="31.7912402" lon="34.9889066">
<ele>303.000000</ele>
<time>2010-01-01T00:16:15.000Z</time>
</trkpt>
<trkpt lat="31.7910865" lon="34.9891356">
<ele>307.000000</ele>
<time>2010-01-01T00:16:25.000Z</time>
</trkpt>
<trkpt lat="31.7910308" lon="34.9891791">
<ele>307.000000</ele>
<time>2010-01-01T00:16:28.000Z</time>
</trkpt>
<trkpt lat="31.7909329" lon="34.9893378">
<ele>309.000000</ele>
<time>2010-01-01T00:16:36.000Z</time>
</trkpt>
<trkpt lat="31.7907865" lon="34.9896793">
<ele>309.000000</ele>
<time>2010-01-01T00:16:49.000Z</time>
</trkpt>
<trkpt lat="31.7907444" lon="34.9898703">
<ele>309.000000</ele>
<time>2010-01-01T00:16:55.000Z</time>
</trkpt>
<trkpt lat="31.7908318" lon="34.9903775">
<ele>315.000000</ele>
<time>2010-01-01T00:17:13.000Z</time>
</trkpt>
<trkpt lat="31.7907965" lon="34.9904550">
<ele>316.000000</ele>
<time>2010-01-01T00:17:16.000Z</time>
</trkpt>
<trkpt lat="31.7905045" lon="34.9906370">
<ele>317.000000</ele>
<time>2010-01-01T00:17:29.000Z</time>
</trkpt>
<trkpt lat="31.7904200" lon="34.9907426">
<ele>318.000000</ele>
<time>2010-01-01T00:17:34.000Z</time>
</trkpt>
<trkpt lat="31.7903717" lon="34.9909784">
<ele>321.000031</ele>
<time>2010-01-01T00:17:42.000Z</time>
</trkpt>
<trkpt lat="31.7902040" lon="34.9913116">
<ele>321.000031</ele>
<time>2010-01-01T00:17:55.000Z</time>
</trkpt>
<trkpt lat="31.7898430" lon="34.9919378">
<ele>322.000000</ele>
<time>2010-01-01T00:18:19.000Z</time>
</trkpt>
<trkpt lat="31.7897424" lon="34.9921408">
<ele>321.000031</ele>
<time>2010-01-01T00:18:30.000Z</time>
</trkpt>
<trkpt lat="31.7896739" lon="34.9923961">
<ele>325.000000</ele>
<time>2010-01-01T00:18:39.000Z</time>
</trkpt>
<trkpt lat="31.7893162" lon="34.9928124">
<ele>326.000000</ele>
<time>2010-01-01T00:18:59.000Z</time>
</trkpt>
<trkpt lat="31.7893375" lon="34.9931019">
<ele>326.000000</ele>
<time>2010-01-01T00:19:09.000Z</time>
</trkpt>
<trkpt lat="31.7894150" lon="34.9935150">
<ele>326.999969</ele>
<time>2010-01-01T00:19:23.000Z</time>
</trkpt>
<trkpt lat="31.7896286" lon="34.9939441">
<ele>328.000000</ele>
<time>2010-01-01T00:19:41.000Z</time>
</trkpt>
<trkpt lat="31.7899212" lon="34.9942874">
<ele>334.000000</ele>
<time>2010-01-01T00:19:57.000Z</time>
</trkpt>
<trkpt lat="31.7899850" lon="34.9944055">
<ele>334.000000</ele>
<time>2010-01-01T00:20:02.000Z</time>
</trkpt>
<trkpt lat="31.7899257" lon="34.9945127">
<ele>335.000031</ele>
<time>2010-01-01T00:20:06.000Z</time>
</trkpt>
<trkpt lat="31.7896339" lon="34.9944376">
<ele>332.000000</ele>
<time>2010-01-01T00:20:18.000Z</time>
</trkpt>
<trkpt lat="31.7892463" lon="34.9943143">
<ele>332.000000</ele>
<time>2010-01-01T00:20:34.000Z</time>
</trkpt>
<trkpt lat="31.7890138" lon="34.9943733">
<ele>334.000000</ele>
<time>2010-01-01T00:20:44.000Z</time>
</trkpt>
<trkpt lat="31.7888952" lon="34.9944913">
<ele>335.000031</ele>
<time>2010-01-01T00:20:50.000Z</time>
</trkpt>
<trkpt lat="31.7884940" lon="34.9950277">
<ele>343.000000</ele>
<time>2010-01-01T00:21:14.000Z</time>
</trkpt>
<trkpt lat="31.7884210" lon="34.9952638">
<ele>346.000031</ele>
<time>2010-01-01T00:21:23.000Z</time>
</trkpt>
<trkpt lat="31.7882842" lon="34.9956071">
<ele>345.000000</ele>
<time>2010-01-01T00:21:36.000Z</time>
</trkpt>
<trkpt lat="31.7881566" lon="34.9961006">
<ele>344.000000</ele>
<time>2010-01-01T00:21:53.000Z</time>
</trkpt>
<trkpt lat="31.7880106" lon="34.9965512">
<ele>341.000000</ele>
<time>2010-01-01T00:22:10.000Z</time>
</trkpt>
<trkpt lat="31.7879559" lon="34.9970448">
<ele>335.000031</ele>
<time>2010-01-01T00:22:27.000Z</time>
</trkpt>
<trkpt lat="31.7882751" lon="34.9979245">
<ele>340.000000</ele>
<time>2010-01-01T00:22:59.000Z</time>
</trkpt>
<trkpt lat="31.7884028" lon="34.9981606">
<ele>344.000000</ele>
<time>2010-01-01T00:23:09.000Z</time>
</trkpt>
<trkpt lat="31.7884940" lon="34.9983966">
<ele>346.000031</ele>
<time>2010-01-01T00:23:18.000Z</time>
</trkpt>
<trkpt lat="31.7886216" lon="34.9987936">
<ele>343.000000</ele>
<time>2010-01-01T00:23:32.000Z</time>
</trkpt>
<trkpt lat="31.7890959" lon="34.9991476">
<ele>340.000000</ele>
<time>2010-01-01T00:23:55.000Z</time>
</trkpt>
<trkpt lat="31.7894150" lon="34.9992549">
<ele>342.000000</ele>
<time>2010-01-01T00:24:08.000Z</time>
</trkpt>
<trkpt lat="31.7897160" lon="34.9992442">
<ele>344.000000</ele>
<time>2010-01-01T00:24:20.000Z</time>
</trkpt>
<trkpt lat="31.7898892" lon="34.9994051">
<ele>343.000000</ele>
<time>2010-01-01T00:24:29.000Z</time>
</trkpt>
<trkpt lat="31.7897342" lon="34.9995768">
<ele>337.999969</ele>
<time>2010-01-01T00:24:37.000Z</time>
</trkpt>
<trkpt lat="31.7895062" lon="34.9997699">
<ele>331.000000</ele>
<time>2010-01-01T00:24:49.000Z</time>
</trkpt>
<trkpt lat="31.7894105" lon="35.0000059">
<ele>323.000000</ele>
<time>2010-01-01T00:24:57.000Z</time>
</trkpt>
<trkpt lat="31.7890639" lon="35.0002312">
<ele>314.000000</ele>
<time>2010-01-01T00:25:13.000Z</time>
</trkpt>
<trkpt lat="31.7883298" lon="34.9996411">
<ele>322.000000</ele>
<time>2010-01-01T00:25:49.000Z</time>
</trkpt>
<trkpt lat="31.7878602" lon="34.9993461">
<ele>318.000000</ele>
<time>2010-01-01T00:26:10.000Z</time>
</trkpt>
<trkpt lat="31.7877006" lon="34.9992227">
<ele>317.000000</ele>
<time>2010-01-01T00:26:18.000Z</time>
</trkpt>
<trkpt lat="31.7875866" lon="34.9990564">
<ele>316.000000</ele>
<time>2010-01-01T00:26:25.000Z</time>
</trkpt>
<trkpt lat="31.7874179" lon="34.9985682">
<ele>320.000000</ele>
<time>2010-01-01T00:26:43.000Z</time>
</trkpt>
<trkpt lat="31.7871124" lon="34.9979192">
<ele>316.000000</ele>
<time>2010-01-01T00:27:08.000Z</time>
</trkpt>
<trkpt lat="31.7870166" lon="34.9979352">
<ele>316.000000</ele>
<time>2010-01-01T00:27:12.000Z</time>
</trkpt>
<trkpt lat="31.7868672" lon="34.9980017">
<ele>316.000000</ele>
<time>2010-01-01T00:27:19.000Z</time>
</trkpt>
<trkpt lat="31.7867959" lon="34.9981282">
<ele>315.000000</ele>
<time>2010-01-01T00:27:24.000Z</time>
</trkpt>
<trkpt lat="31.7866986" lon="34.9982178">
<ele>315.000000</ele>
<time>2010-01-01T00:27:29.000Z</time>
</trkpt>
<trkpt lat="31.7864319" lon="34.9983585">
<ele>314.000000</ele>
<time>2010-01-01T00:27:40.000Z</time>
</trkpt>
<trkpt lat="31.7862379" lon="34.9984341">
<ele>315.000000</ele>
<time>2010-01-01T00:27:48.000Z</time>
</trkpt>
<trkpt lat="31.7861048" lon="34.9982937">
<ele>316.000000</ele>
<time>2010-01-01T00:27:54.000Z</time>
</trkpt>
<trkpt lat="31.7858852" lon="34.9979447">
<ele>320.000000</ele>
<time>2010-01-01T00:28:09.000Z</time>
</trkpt>
<trkpt lat="31.7858084" lon="34.9977432">
<ele>323.000000</ele>
<time>2010-01-01T00:28:16.000Z</time>
</trkpt>
<trkpt lat="31.7856469" lon="34.9974146">
<ele>326.999969</ele>
<time>2010-01-01T00:28:29.000Z</time>
</trkpt>
<trkpt lat="31.7855296" lon="34.9972288">
<ele>329.000000</ele>
<time>2010-01-01T00:28:37.000Z</time>
</trkpt>
<trkpt lat="31.7854113" lon="34.9971022">
<ele>330.000000</ele>
<time>2010-01-01T00:28:44.000Z</time>
</trkpt>
<trkpt lat="31.7853388" lon="34.9970010">
<ele>330.000000</ele>
<time>2010-01-01T00:28:48.000Z</time>
</trkpt>
<trkpt lat="31.7852131" lon="34.9967914">
<ele>332.000000</ele>
<time>2010-01-01T00:28:57.000Z</time>
</trkpt>
<trkpt lat="31.7849885" lon="34.9963204">
<ele>334.000000</ele>
<time>2010-01-01T00:29:15.000Z</time>
</trkpt>
<trkpt lat="31.7848638" lon="34.9959726">
<ele>336.000000</ele>
<time>2010-01-01T00:29:28.000Z</time>
</trkpt>
<trkpt lat="31.7847324" lon="34.9956843">
<ele>336.000000</ele>
<time>2010-01-01T00:29:39.000Z</time>
</trkpt>
<trkpt lat="31.7846783" lon="34.9954889">
<ele>337.999969</ele>
<time>2010-01-01T00:29:46.000Z</time>
</trkpt>
<trkpt lat="31.7845895" lon="34.9953074">
<ele>337.999969</ele>
<time>2010-01-01T00:29:53.000Z</time>
</trkpt>
<trkpt lat="31.7842546" lon="34.9947893">
<ele>342.000000</ele>
<time>2010-01-01T00:30:15.000Z</time>
</trkpt>
<trkpt lat="31.7841660" lon="34.9946759">
<ele>342.000000</ele>
<time>2010-01-01T00:30:21.000Z</time>
</trkpt>
<trkpt lat="31.7840085" lon="34.9945263">
<ele>341.000000</ele>
<time>2010-01-01T00:30:29.000Z</time>
</trkpt>
<trkpt lat="31.7839090" lon="34.9943874">
<ele>342.000000</ele>
<time>2010-01-01T00:30:35.000Z</time>
</trkpt>
<trkpt lat="31.7837629" lon="34.9942252">
<ele>342.000000</ele>
<time>2010-01-01T00:30:43.000Z</time>
</trkpt>
<trkpt lat="31.7833864" lon="34.9938747">
<ele>343.000000</ele>
<time>2010-01-01T00:31:02.000Z</time>
</trkpt>
<trkpt lat="31.7829041" lon="34.9935990">
<ele>341.000000</ele>
<time>2010-01-01T00:31:24.000Z</time>
</trkpt>
<trkpt lat="31.7826496" lon="34.9934310">
<ele>341.000000</ele>
<time>2010-01-01T00:31:35.000Z</time>
</trkpt>
<trkpt lat="31.7823841" lon="34.9931781">
<ele>343.000000</ele>
<time>2010-01-01T00:31:49.000Z</time>
</trkpt>
<trkpt lat="31.7821897" lon="34.9929574">
<ele>345.000000</ele>
<time>2010-01-01T00:32:00.000Z</time>
</trkpt>
<trkpt lat="31.7820313" lon="34.9928369">
<ele>344.000000</ele>
<time>2010-01-01T00:32:07.000Z</time>
</trkpt>
<trkpt lat="31.7818723" lon="34.9927615">
<ele>343.000000</ele>
<time>2010-01-01T00:32:14.000Z</time>
</trkpt>
<trkpt lat="31.7817687" lon="34.9927549">
<ele>342.000000</ele>
<time>2010-01-01T00:32:18.000Z</time>
</trkpt>
<trkpt lat="31.7814983" lon="34.9927793">
<ele>343.000000</ele>
<time>2010-01-01T00:32:29.000Z</time>
</trkpt>
<trkpt lat="31.7811529" lon="34.9928901">
<ele>341.000000</ele>
<time>2010-01-01T00:32:44.000Z</time>
</trkpt>
<trkpt lat="31.7807382" lon="34.9930625">
<ele>336.000000</ele>
<time>2010-01-01T00:33:01.000Z</time>
</trkpt>
<trkpt lat="31.7803430" lon="34.9932783">
<ele>332.000000</ele>
<time>2010-01-01T00:33:19.000Z</time>
</trkpt>
<trkpt lat="31.7801965" lon="34.9933440">
<ele>332.000000</ele>
<time>2010-01-01T00:33:25.000Z</time>
</trkpt>
<trkpt lat="31.7798966" lon="34.9934442">
<ele>333.000000</ele>
<time>2010-01-01T00:33:37.000Z</time>
</trkpt>
<trkpt lat="31.7794633" lon="34.9935243">
<ele>334.000000</ele>
<time>2010-01-01T00:33:55.000Z</time>
</trkpt>
<trkpt lat="31.7793258" lon="34.9935681">
<ele>334.000000</ele>
<time>2010-01-01T00:34:01.000Z</time>
</trkpt>
<trkpt lat="31.7791962" lon="34.9936529">
<ele>332.000000</ele>
<time>2010-01-01T00:34:07.000Z</time>
</trkpt>
<trkpt lat="31.7789989" lon="34.9938575">
<ele>326.000000</ele>
<time>2010-01-01T00:34:17.000Z</time>
</trkpt>
<trkpt lat="31.7787835" lon="34.9940080">
<ele>323.999969</ele>
<time>2010-01-01T00:34:27.000Z</time>
</trkpt>
<trkpt lat="31.7787236" lon="34.9940310">
<ele>323.999969</ele>
<time>2010-01-01T00:34:30.000Z</time>
</trkpt>
<trkpt lat="31.7785516" lon="34.9940272">
<ele>326.000000</ele>
<time>2010-01-01T00:34:37.000Z</time>
</trkpt>
<trkpt lat="31.7783761" lon="34.9939646">
<ele>326.999969</ele>
<time>2010-01-01T00:34:44.000Z</time>
</trkpt>
<trkpt lat="31.7781644" lon="34.9938427">
<ele>330.000000</ele>
<time>2010-01-01T00:34:53.000Z</time>
</trkpt>
<trkpt lat="31.7778049" lon="34.9936840">
<ele>331.000000</ele>
<time>2010-01-01T00:35:09.000Z</time>
</trkpt>
<trkpt lat="31.7776818" lon="34.9935987">
<ele>331.000000</ele>
<time>2010-01-01T00:35:14.000Z</time>
</trkpt>
<trkpt lat="31.7774437" lon="34.9933069">
<ele>326.999969</ele>
<time>2010-01-01T00:35:28.000Z</time>
</trkpt>
<trkpt lat="31.7774141" lon="34.9932576">
<ele>326.999969</ele>
<time>2010-01-01T00:35:30.000Z</time>
</trkpt>
<trkpt lat="31.7773855" lon="34.9931316">
<ele>326.000000</ele>
<time>2010-01-01T00:35:35.000Z</time>
</trkpt>
<trkpt lat="31.7774151" lon="34.9928392">
<ele>328.000000</ele>
<time>2010-01-01T00:35:45.000Z</time>
</trkpt>
<trkpt lat="31.7773711" lon="34.9924199">
<ele>331.000000</ele>
<time>2010-01-01T00:35:59.000Z</time>
</trkpt>
<trkpt lat="31.7773435" lon="34.9923536">
<ele>331.000000</ele>
<time>2010-01-01T00:36:02.000Z</time>
</trkpt>
<trkpt lat="31.7772453" lon="34.9922405">
<ele>333.000000</ele>
<time>2010-01-01T00:36:07.000Z</time>
</trkpt>
<trkpt lat="31.7770086" lon="34.9920418">
<ele>334.000000</ele>
<time>2010-01-01T00:36:19.000Z</time>
</trkpt>
<trkpt lat="31.7768663" lon="34.9918776">
<ele>335.000031</ele>
<time>2010-01-01T00:36:27.000Z</time>
</trkpt>
<trkpt lat="31.7767129" lon="34.9917345">
<ele>336.000000</ele>
<time>2010-01-01T00:36:35.000Z</time>
</trkpt>
<trkpt lat="31.7765389" lon="34.9916336">
<ele>337.999969</ele>
<time>2010-01-01T00:36:42.000Z</time>
</trkpt>
<trkpt lat="31.7760239" lon="34.9914140">
<ele>341.000000</ele>
<time>2010-01-01T00:37:04.000Z</time>
</trkpt>
<trkpt lat="31.7758374" lon="34.9913547">
<ele>339.000000</ele>
<time>2010-01-01T00:37:12.000Z</time>
</trkpt>
<trkpt lat="31.7756553" lon="34.9912489">
<ele>337.000000</ele>
<time>2010-01-01T00:37:20.000Z</time>
</trkpt>
<trkpt lat="31.7755961" lon="34.9911887">
<ele>337.000000</ele>
<time>2010-01-01T00:37:23.000Z</time>
</trkpt>
<trkpt lat="31.7755129" lon="34.9910487">
<ele>337.000000</ele>
<time>2010-01-01T00:37:29.000Z</time>
</trkpt>
<trkpt lat="31.7754501" lon="34.9908423">
<ele>337.999969</ele>
<time>2010-01-01T00:37:37.000Z</time>
</trkpt>
<trkpt lat="31.7753919" lon="34.9901077">
<ele>340.000000</ele>
<time>2010-01-01T00:38:02.000Z</time>
</trkpt>
<trkpt lat="31.7753838" lon="34.9897807">
<ele>342.000000</ele>
<time>2010-01-01T00:38:13.000Z</time>
</trkpt>
<trkpt lat="31.7753496" lon="34.9896030">
<ele>342.000000</ele>
<time>2010-01-01T00:38:19.000Z</time>
</trkpt>
<trkpt lat="31.7752289" lon="34.9892372">
<ele>340.000000</ele>
<time>2010-01-01T00:38:32.000Z</time>
</trkpt>
<trkpt lat="31.7750843" lon="34.9889166">
<ele>337.999969</ele>
<time>2010-01-01T00:38:45.000Z</time>
</trkpt>
<trkpt lat="31.7749756" lon="34.9887432">
<ele>336.000000</ele>
<time>2010-01-01T00:38:52.000Z</time>
</trkpt>
<trkpt lat="31.7749087" lon="34.9885392">
<ele>335.000031</ele>
<time>2010-01-01T00:38:59.000Z</time>
</trkpt>
<trkpt lat="31.7748238" lon="34.9881196">
<ele>339.000000</ele>
<time>2010-01-01T00:39:14.000Z</time>
</trkpt>
<trkpt lat="31.7748154" lon="34.9877957">
<ele>343.000000</ele>
<time>2010-01-01T00:39:25.000Z</time>
</trkpt>
<trkpt lat="31.7748588" lon="34.9876740">
<ele>345.000000</ele>
<time>2010-01-01T00:39:30.000Z</time>
</trkpt>
<trkpt lat="31.7749097" lon="34.9876107">
<ele>347.000000</ele>
<time>2010-01-01T00:39:33.000Z</time>
</trkpt>
<trkpt lat="31.7749738" lon="34.9875631">
<ele>348.000000</ele>
<time>2010-01-01T00:39:36.000Z</time>
</trkpt>
<trkpt lat="31.7751216" lon="34.9874156">
<ele>351.000000</ele>
<time>2010-01-01T00:39:43.000Z</time>
</trkpt>
<trkpt lat="31.7752101" lon="34.9873283">
<ele>353.000000</ele>
<time>2010-01-01T00:39:49.000Z</time>
</trkpt>
<trkpt lat="31.7752321" lon="34.9872616">
<ele>355.000000</ele>
<time>2010-01-01T00:39:51.000Z</time>
</trkpt>
<trkpt lat="31.7752277" lon="34.9872103">
<ele>356.000000</ele>
<time>2010-01-01T00:39:53.000Z</time>
</trkpt>
<trkpt lat="31.7751068" lon="34.9871506">
<ele>356.000000</ele>
<time>2010-01-01T00:39:58.000Z</time>
</trkpt>
<trkpt lat="31.7747831" lon="34.9867930">
<ele>361.000000</ele>
<time>2010-01-01T00:40:16.000Z</time>
</trkpt>
<trkpt lat="31.7743075" lon="34.9863784">
<ele>366.000000</ele>
<time>2010-01-01T00:40:39.000Z</time>
</trkpt>
<trkpt lat="31.7741673" lon="34.9862247">
<ele>368.000000</ele>
<time>2010-01-01T00:40:47.000Z</time>
</trkpt>
<trkpt lat="31.7739638" lon="34.9860449">
<ele>368.000000</ele>
<time>2010-01-01T00:40:57.000Z</time>
</trkpt>
<trkpt lat="31.7737367" lon="34.9857866">
<ele>370.000000</ele>
<time>2010-01-01T00:41:10.000Z</time>
</trkpt>
<trkpt lat="31.7734329" lon="34.9852271">
<ele>368.000000</ele>
<time>2010-01-01T00:41:33.000Z</time>
</trkpt>
<trkpt lat="31.7733432" lon="34.9849881">
<ele>369.000000</ele>
<time>2010-01-01T00:41:41.000Z</time>
</trkpt>
<trkpt lat="31.7732951" lon="34.9847032">
<ele>371.000000</ele>
<time>2010-01-01T00:41:51.000Z</time>
</trkpt>
<trkpt lat="31.7732899" lon="34.9845219">
<ele>371.000000</ele>
<time>2010-01-01T00:41:57.000Z</time>
</trkpt>
<trkpt lat="31.7733092" lon="34.9843069">
<ele>371.000000</ele>
<time>2010-01-01T00:42:05.000Z</time>
</trkpt>
<trkpt lat="31.7732723" lon="34.9838948">
<ele>371.000000</ele>
<time>2010-01-01T00:42:19.000Z</time>
</trkpt>
<trkpt lat="31.7732357" lon="34.9837873">
<ele>371.000000</ele>
<time>2010-01-01T00:42:23.000Z</time>
</trkpt>
<trkpt lat="31.7725033" lon="34.9823609">
<ele>369.000000</ele>
<time>2010-01-01T00:43:20.000Z</time>
</trkpt>
<trkpt lat="31.7723397" lon="34.9821264">
<ele>367.000000</ele>
<time>2010-01-01T00:43:30.000Z</time>
</trkpt>
<trkpt lat="31.7721527" lon="34.9819387">
<ele>362.000000</ele>
<time>2010-01-01T00:43:40.000Z</time>
</trkpt>
<trkpt lat="31.7720972" lon="34.9818398">
<ele>361.000000</ele>
<time>2010-01-01T00:43:44.000Z</time>
</trkpt>
<trkpt lat="31.7720725" lon="34.9816794">
<ele>360.000031</ele>
<time>2010-01-01T00:43:49.000Z</time>
</trkpt>
<trkpt lat="31.7720524" lon="34.9813534">
<ele>358.000000</ele>
<time>2010-01-01T00:44:00.000Z</time>
</trkpt>
<trkpt lat="31.7719763" lon="34.9810683">
<ele>353.000000</ele>
<time>2010-01-01T00:44:11.000Z</time>
</trkpt>
<trkpt lat="31.7719012" lon="34.9809666">
<ele>350.000000</ele>
<time>2010-01-01T00:44:15.000Z</time>
</trkpt>
<trkpt lat="31.7717950" lon="34.9809056">
<ele>346.000031</ele>
<time>2010-01-01T00:44:20.000Z</time>
</trkpt>
<trkpt lat="31.7716107" lon="34.9808757">
<ele>340.000000</ele>
<time>2010-01-01T00:44:27.000Z</time>
</trkpt>
<trkpt lat="31.7715188" lon="34.9808097">
<ele>337.999969</ele>
<time>2010-01-01T00:44:32.000Z</time>
</trkpt>
<trkpt lat="31.7714682" lon="34.9806861">
<ele>337.000000</ele>
<time>2010-01-01T00:44:36.000Z</time>
</trkpt>
<trkpt lat="31.7714656" lon="34.9805342">
<ele>337.000000</ele>
<time>2010-01-01T00:44:42.000Z</time>
</trkpt>
<trkpt lat="31.7715038" lon="34.9803889">
<ele>337.999969</ele>
<time>2010-01-01T00:44:47.000Z</time>
</trkpt>
<trkpt lat="31.7715714" lon="34.9802687">
<ele>340.000000</ele>
<time>2010-01-01T00:44:52.000Z</time>
</trkpt>
<trkpt lat="31.7716586" lon="34.9801795">
<ele>342.000000</ele>
<time>2010-01-01T00:44:56.000Z</time>
</trkpt>
<trkpt lat="31.7718057" lon="34.9801059">
<ele>345.000000</ele>
<time>2010-01-01T00:45:03.000Z</time>
</trkpt>
<trkpt lat="31.7719099" lon="34.9800049">
<ele>347.000000</ele>
<time>2010-01-01T00:45:08.000Z</time>
</trkpt>
<trkpt lat="31.7719072" lon="34.9799293">
<ele>347.000000</ele>
<time>2010-01-01T00:45:11.000Z</time>
</trkpt>
<trkpt lat="31.7718910" lon="34.9798940">
<ele>347.000000</ele>
<time>2010-01-01T00:45:12.000Z</time>
</trkpt>
<trkpt lat="31.7715546" lon="34.9797329">
<ele>341.000000</ele>
<time>2010-01-01T00:45:27.000Z</time>
</trkpt>
<trkpt lat="31.7713178" lon="34.9796728">
<ele>337.999969</ele>
<time>2010-01-01T00:45:36.000Z</time>
</trkpt>
<trkpt lat="31.7711363" lon="34.9795723">
<ele>335.000031</ele>
<time>2010-01-01T00:45:44.000Z</time>
</trkpt>
<trkpt lat="31.7710252" lon="34.9793855">
<ele>335.000031</ele>
<time>2010-01-01T00:45:52.000Z</time>
</trkpt>
<trkpt lat="31.7710075" lon="34.9792925">
<ele>337.000000</ele>
<time>2010-01-01T00:45:55.000Z</time>
</trkpt>
<trkpt lat="31.7709586" lon="34.9791644">
<ele>337.999969</ele>
<time>2010-01-01T00:46:00.000Z</time>
</trkpt>
<trkpt lat="31.7708152" lon="34.9788993">
<ele>340.000000</ele>
<time>2010-01-01T00:46:11.000Z</time>
</trkpt>
<trkpt lat="31.7703581" lon="34.9782658">
<ele>336.000000</ele>
<time>2010-01-01T00:46:39.000Z</time>
</trkpt>
<trkpt lat="31.7702185" lon="34.9780897">
<ele>334.000000</ele>
<time>2010-01-01T00:46:47.000Z</time>
</trkpt>
<trkpt lat="31.7700358" lon="34.9779095">
<ele>332.000000</ele>
<time>2010-01-01T00:46:57.000Z</time>
</trkpt>
<trkpt lat="31.7697600" lon="34.9777137">
<ele>329.000000</ele>
<time>2010-01-01T00:47:10.000Z</time>
</trkpt>
<trkpt lat="31.7695432" lon="34.9774582">
<ele>329.000000</ele>
<time>2010-01-01T00:47:22.000Z</time>
</trkpt>
<trkpt lat="31.7694375" lon="34.9772519">
<ele>329.000000</ele>
<time>2010-01-01T00:47:30.000Z</time>
</trkpt>
<trkpt lat="31.7693601" lon="34.9770571">
<ele>326.999969</ele>
<time>2010-01-01T00:47:37.000Z</time>
</trkpt>
<trkpt lat="31.7693152" lon="34.9768719">
<ele>326.000000</ele>
<time>2010-01-01T00:47:44.000Z</time>
</trkpt>
<trkpt lat="31.7693140" lon="34.9767650">
<ele>326.000000</ele>
<time>2010-01-01T00:47:48.000Z</time>
</trkpt>
<trkpt lat="31.7693234" lon="34.9767210">
<ele>326.000000</ele>
<time>2010-01-01T00:47:49.000Z</time>
</trkpt>
<trkpt lat="31.7694677" lon="34.9765040">
<ele>329.000000</ele>
<time>2010-01-01T00:47:59.000Z</time>
</trkpt>
<trkpt lat="31.7697358" lon="34.9762062">
<ele>331.000000</ele>
<time>2010-01-01T00:48:13.000Z</time>
</trkpt>
<trkpt lat="31.7697464" lon="34.9761760">
<ele>331.000000</ele>
<time>2010-01-01T00:48:14.000Z</time>
</trkpt>
<trkpt lat="31.7697200" lon="34.9760234">
<ele>331.000000</ele>
<time>2010-01-01T00:48:20.000Z</time>
</trkpt>
<trkpt lat="31.7696198" lon="34.9759239">
<ele>331.000000</ele>
<time>2010-01-01T00:48:25.000Z</time>
</trkpt>
<trkpt lat="31.7695782" lon="34.9759141">
<ele>331.000000</ele>
<time>2010-01-01T00:48:27.000Z</time>
</trkpt>
<trkpt lat="31.7694465" lon="34.9759205">
<ele>329.000000</ele>
<time>2010-01-01T00:48:32.000Z</time>
</trkpt>
<trkpt lat="31.7692252" lon="34.9759796">
<ele>326.000000</ele>
<time>2010-01-01T00:48:41.000Z</time>
</trkpt>
<trkpt lat="31.7691072" lon="34.9759647">
<ele>325.000000</ele>
<time>2010-01-01T00:48:46.000Z</time>
</trkpt>
<trkpt lat="31.7687654" lon="34.9757861">
<ele>325.000000</ele>
<time>2010-01-01T00:49:01.000Z</time>
</trkpt>
<trkpt lat="31.7685084" lon="34.9755651">
<ele>325.000000</ele>
<time>2010-01-01T00:49:13.000Z</time>
</trkpt>
<trkpt lat="31.7682839" lon="34.9753434">
<ele>326.000000</ele>
<time>2010-01-01T00:49:25.000Z</time>
</trkpt>
<trkpt lat="31.7678246" lon="34.9749559">
<ele>326.000000</ele>
<time>2010-01-01T00:49:48.000Z</time>
</trkpt>
<trkpt lat="31.7675125" lon="34.9746577">
<ele>326.999969</ele>
<time>2010-01-01T00:50:04.000Z</time>
</trkpt>
<trkpt lat="31.7672655" lon="34.9742676">
<ele>326.999969</ele>
<time>2010-01-01T00:50:21.000Z</time>
</trkpt>
<trkpt lat="31.7670380" lon="34.9737172">
<ele>326.000000</ele>
<time>2010-01-01T00:50:41.000Z</time>
</trkpt>
<trkpt lat="31.7668824" lon="34.9729799">
<ele>326.999969</ele>
<time>2010-01-01T00:51:07.000Z</time>
</trkpt>
<trkpt lat="31.7668658" lon="34.9728180">
<ele>323.999969</ele>
<time>2010-01-01T00:51:13.000Z</time>
</trkpt>
<trkpt lat="31.7668729" lon="34.9726535">
<ele>322.000000</ele>
<time>2010-01-01T00:51:18.000Z</time>
</trkpt>
<trkpt lat="31.7669676" lon="34.9721837">
<ele>320.000000</ele>
<time>2010-01-01T00:51:35.000Z</time>
</trkpt>
<trkpt lat="31.7670173" lon="34.9720478">
<ele>319.000000</ele>
<time>2010-01-01T00:51:40.000Z</time>
</trkpt>
<trkpt lat="31.7671315" lon="34.9718827">
<ele>320.000000</ele>
<time>2010-01-01T00:51:47.000Z</time>
</trkpt>
<trkpt lat="31.7673640" lon="34.9716663">
<ele>325.000000</ele>
<time>2010-01-01T00:51:59.000Z</time>
</trkpt>
<trkpt lat="31.7676735" lon="34.9713298">
<ele>325.000000</ele>
<time>2010-01-01T00:52:16.000Z</time>
</trkpt>
<trkpt lat="31.7679337" lon="34.9712059">
<ele>329.000000</ele>
<time>2010-01-01T00:52:27.000Z</time>
</trkpt>
<trkpt lat="31.7681600" lon="34.9710246">
<ele>332.000000</ele>
<time>2010-01-01T00:52:38.000Z</time>
</trkpt>
<trkpt lat="31.7682950" lon="34.9708733">
<ele>333.000000</ele>
<time>2010-01-01T00:52:45.000Z</time>
</trkpt>
<trkpt lat="31.7684313" lon="34.9706983">
<ele>332.000000</ele>
<time>2010-01-01T00:52:54.000Z</time>
</trkpt>
<trkpt lat="31.7686085" lon="34.9703815">
<ele>328.000000</ele>
<time>2010-01-01T00:53:06.000Z</time>
</trkpt>
<trkpt lat="31.7688981" lon="34.9700362">
<ele>328.000000</ele>
<time>2010-01-01T00:53:23.000Z</time>
</trkpt>
<trkpt lat="31.7689951" lon="34.9698776">
<ele>330.000000</ele>
<time>2010-01-01T00:53:30.000Z</time>
</trkpt>
<trkpt lat="31.7691221" lon="34.9695681">
<ele>330.000000</ele>
<time>2010-01-01T00:53:41.000Z</time>
</trkpt>
<trkpt lat="31.7691424" lon="34.9693286">
<ele>329.000000</ele>
<time>2010-01-01T00:53:49.000Z</time>
</trkpt>
<trkpt lat="31.7691194" lon="34.9688334">
<ele>326.000000</ele>
<time>2010-01-01T00:54:06.000Z</time>
</trkpt>
<trkpt lat="31.7691336" lon="34.9681621">
<ele>322.000000</ele>
<time>2010-01-01T00:54:29.000Z</time>
</trkpt>
<trkpt lat="31.7691168" lon="34.9676205">
<ele>317.000000</ele>
<time>2010-01-01T00:54:48.000Z</time>
</trkpt>
<trkpt lat="31.7690583" lon="34.9672435">
<ele>316.000000</ele>
<time>2010-01-01T00:55:01.000Z</time>
</trkpt>
<trkpt lat="31.7689401" lon="34.9669378">
<ele>309.000000</ele>
<time>2010-01-01T00:55:12.000Z</time>
</trkpt>
<trkpt lat="31.7688124" lon="34.9665172">
<ele>305.000000</ele>
<time>2010-01-01T00:55:27.000Z</time>
</trkpt>
<trkpt lat="31.7688012" lon="34.9663003">
<ele>305.000000</ele>
<time>2010-01-01T00:55:35.000Z</time>
</trkpt>
<trkpt lat="31.7688332" lon="34.9659938">
<ele>309.000000</ele>
<time>2010-01-01T00:55:45.000Z</time>
</trkpt>
<trkpt lat="31.7688058" lon="34.9658888">
<ele>309.000000</ele>
<time>2010-01-01T00:55:49.000Z</time>
</trkpt>
<trkpt lat="31.7687283" lon="34.9657373">
<ele>309.000000</ele>
<time>2010-01-01T00:55:55.000Z</time>
</trkpt>
<trkpt lat="31.7683975" lon="34.9653973">
<ele>305.000000</ele>
<time>2010-01-01T00:56:13.000Z</time>
</trkpt>
<trkpt lat="31.7681960" lon="34.9650236">
<ele>304.000000</ele>
<time>2010-01-01T00:56:28.000Z</time>
</trkpt>
<trkpt lat="31.7680989" lon="34.9648042">
<ele>300.000000</ele>
<time>2010-01-01T00:56:36.000Z</time>
</trkpt>
<trkpt lat="31.7680777" lon="34.9646985">
<ele>300.000000</ele>
<time>2010-01-01T00:56:40.000Z</time>
</trkpt>
<trkpt lat="31.7680830" lon="34.9645413">
<ele>300.000000</ele>
<time>2010-01-01T00:56:45.000Z</time>
</trkpt>
<trkpt lat="31.7681238" lon="34.9644238">
<ele>302.000000</ele>
<time>2010-01-01T00:56:49.000Z</time>
</trkpt>
<trkpt lat="31.7682269" lon="34.9642076">
<ele>303.000000</ele>
<time>2010-01-01T00:56:58.000Z</time>
</trkpt>
<trkpt lat="31.7683354" lon="34.9640402">
<ele>305.000000</ele>
<time>2010-01-01T00:57:05.000Z</time>
</trkpt>
<trkpt lat="31.7685998" lon="34.9635690">
<ele>305.000000</ele>
<time>2010-01-01T00:57:24.000Z</time>
</trkpt>
<trkpt lat="31.7687410" lon="34.9634487">
<ele>307.000000</ele>
<time>2010-01-01T00:57:31.000Z</time>
</trkpt>
<trkpt lat="31.7688570" lon="34.9634205">
<ele>309.000000</ele>
<time>2010-01-01T00:57:36.000Z</time>
</trkpt>
<trkpt lat="31.7690486" lon="34.9634834">
<ele>314.000000</ele>
<time>2010-01-01T00:57:44.000Z</time>
</trkpt>
<trkpt lat="31.7691332" lon="34.9635339">
<ele>316.000000</ele>
<time>2010-01-01T00:57:48.000Z</time>
</trkpt>
<trkpt lat="31.7692395" lon="34.9635551">
<ele>318.000000</ele>
<time>2010-01-01T00:57:52.000Z</time>
</trkpt>
<trkpt lat="31.7694102" lon="34.9635632">
<ele>319.000000</ele>
<time>2010-01-01T00:57:59.000Z</time>
</trkpt>
<trkpt lat="31.7695810" lon="34.9635308">
<ele>320.000000</ele>
<time>2010-01-01T00:58:06.000Z</time>
</trkpt>
<trkpt lat="31.7697161" lon="34.9634407">
<ele>320.000000</ele>
<time>2010-01-01T00:58:12.000Z</time>
</trkpt>
<trkpt lat="31.7700376" lon="34.9630934">
<ele>321.000031</ele>
<time>2010-01-01T00:58:29.000Z</time>
</trkpt>
<trkpt lat="31.7701745" lon="34.9629033">
<ele>321.000031</ele>
<time>2010-01-01T00:58:38.000Z</time>
</trkpt>
<trkpt lat="31.7705408" lon="34.9623065">
<ele>325.000000</ele>
<time>2010-01-01T00:59:03.000Z</time>
</trkpt>
<trkpt lat="31.7706848" lon="34.9620406">
<ele>326.999969</ele>
<time>2010-01-01T00:59:14.000Z</time>
</trkpt>
<trkpt lat="31.7708730" lon="34.9616438">
<ele>326.000000</ele>
<time>2010-01-01T00:59:29.000Z</time>
</trkpt>
<trkpt lat="31.7709634" lon="34.9615566">
<ele>325.000000</ele>
<time>2010-01-01T00:59:34.000Z</time>
</trkpt>
<trkpt lat="31.7710756" lon="34.9614881">
<ele>325.000000</ele>
<time>2010-01-01T00:59:39.000Z</time>
</trkpt>
<trkpt lat="31.7713168" lon="34.9614302">
<ele>329.000000</ele>
<time>2010-01-01T00:59:49.000Z</time>
</trkpt>
<trkpt lat="31.7714250" lon="34.9614338">
<ele>332.000000</ele>
<time>2010-01-01T00:59:53.000Z</time>
</trkpt>
<trkpt lat="31.7716909" lon="34.9615117">
<ele>334.000000</ele>
<time>2010-01-01T01:00:04.000Z</time>
</trkpt>
<trkpt lat="31.7717534" lon="34.9615562">
<ele>334.000000</ele>
<time>2010-01-01T01:00:07.000Z</time>
</trkpt>
<trkpt lat="31.7718055" lon="34.9616184">
<ele>335.000031</ele>
<time>2010-01-01T01:00:10.000Z</time>
</trkpt>
<trkpt lat="31.7719135" lon="34.9619205">
<ele>339.000000</ele>
<time>2010-01-01T01:00:21.000Z</time>
</trkpt>
<trkpt lat="31.7719337" lon="34.9620549">
<ele>340.000000</ele>
<time>2010-01-01T01:00:26.000Z</time>
</trkpt>
<trkpt lat="31.7720517" lon="34.9624716">
<ele>344.000000</ele>
<time>2010-01-01T01:00:41.000Z</time>
</trkpt>
<trkpt lat="31.7720872" lon="34.9626618">
<ele>346.000031</ele>
<time>2010-01-01T01:00:47.000Z</time>
</trkpt>
<trkpt lat="31.7720304" lon="34.9628164">
<ele>349.000031</ele>
<time>2010-01-01T01:00:53.000Z</time>
</trkpt>
<trkpt lat="31.7717669" lon="34.9629958">
<ele>351.000000</ele>
<time>2010-01-01T01:01:05.000Z</time>
</trkpt>
<trkpt lat="31.7711448" lon="34.9632881">
<ele>346.000031</ele>
<time>2010-01-01T01:01:32.000Z</time>
</trkpt>
<trkpt lat="31.7706046" lon="34.9635879">
<ele>337.000000</ele>
<time>2010-01-01T01:01:56.000Z</time>
</trkpt>
<trkpt lat="31.7700311" lon="34.9639495">
<ele>329.000000</ele>
<time>2010-01-01T01:02:22.000Z</time>
</trkpt>
<trkpt lat="31.7699109" lon="34.9640584">
<ele>329.000000</ele>
<time>2010-01-01T01:02:28.000Z</time>
</trkpt>
<trkpt lat="31.7698281" lon="34.9641982">
<ele>330.000000</ele>
<time>2010-01-01T01:02:34.000Z</time>
</trkpt>
<trkpt lat="31.7697992" lon="34.9644519">
<ele>332.000000</ele>
<time>2010-01-01T01:02:43.000Z</time>
</trkpt>
<trkpt lat="31.7698762" lon="34.9646014">
<ele>333.000000</ele>
<time>2010-01-01T01:02:49.000Z</time>
</trkpt>
<trkpt lat="31.7700124" lon="34.9647264">
<ele>334.000000</ele>
<time>2010-01-01T01:02:56.000Z</time>
</trkpt>
<trkpt lat="31.7702942" lon="34.9649011">
<ele>339.000000</ele>
<time>2010-01-01T01:03:08.000Z</time>
</trkpt>
<trkpt lat="31.7707470" lon="34.9650554">
<ele>337.999969</ele>
<time>2010-01-01T01:03:27.000Z</time>
</trkpt>
<trkpt lat="31.7710048" lon="34.9651892">
<ele>339.000000</ele>
<time>2010-01-01T01:03:38.000Z</time>
</trkpt>
<trkpt lat="31.7712029" lon="34.9653876">
<ele>342.000000</ele>
<time>2010-01-01T01:03:49.000Z</time>
</trkpt>
<trkpt lat="31.7712479" lon="34.9654695">
<ele>343.000000</ele>
<time>2010-01-01T01:03:52.000Z</time>
</trkpt>
<trkpt lat="31.7713419" lon="34.9657559">
<ele>347.000000</ele>
<time>2010-01-01T01:04:03.000Z</time>
</trkpt>
<trkpt lat="31.7713521" lon="34.9660225">
<ele>349.000031</ele>
<time>2010-01-01T01:04:12.000Z</time>
</trkpt>
<trkpt lat="31.7713417" lon="34.9661141">
<ele>349.000031</ele>
<time>2010-01-01T01:04:15.000Z</time>
</trkpt>
<trkpt lat="31.7712202" lon="34.9666135">
<ele>351.000000</ele>
<time>2010-01-01T01:04:32.000Z</time>
</trkpt>
<trkpt lat="31.7710961" lon="34.9669515">
<ele>351.999969</ele>
<time>2010-01-01T01:04:45.000Z</time>
</trkpt>
<trkpt lat="31.7708651" lon="34.9677539">
<ele>359.000000</ele>
<time>2010-01-01T01:05:14.000Z</time>
</trkpt>
<trkpt lat="31.7707244" lon="34.9680844">
<ele>361.000000</ele>
<time>2010-01-01T01:05:26.000Z</time>
</trkpt>
<trkpt lat="31.7703304" lon="34.9694430">
<ele>366.000000</ele>
<time>2010-01-01T01:06:15.000Z</time>
</trkpt>
<trkpt lat="31.7703082" lon="34.9695818">
<ele>366.000000</ele>
<time>2010-01-01T01:06:20.000Z</time>
</trkpt>
<trkpt lat="31.7702990" lon="34.9697829">
<ele>366.000000</ele>
<time>2010-01-01T01:06:27.000Z</time>
</trkpt>
<trkpt lat="31.7703217" lon="34.9701126">
<ele>367.000000</ele>
<time>2010-01-01T01:06:38.000Z</time>
</trkpt>
<trkpt lat="31.7704716" lon="34.9709474">
<ele>370.000000</ele>
<time>2010-01-01T01:07:07.000Z</time>
</trkpt>
<trkpt lat="31.7704861" lon="34.9709976">
<ele>371.000000</ele>
<time>2010-01-01T01:07:09.000Z</time>
</trkpt>
<trkpt lat="31.7705863" lon="34.9711214">
<ele>372.000000</ele>
<time>2010-01-01T01:07:15.000Z</time>
</trkpt>
<trkpt lat="31.7707130" lon="34.9710880">
<ele>371.000000</ele>
<time>2010-01-01T01:07:20.000Z</time>
</trkpt>
<trkpt lat="31.7708659" lon="34.9709211">
<ele>368.000000</ele>
<time>2010-01-01T01:07:28.000Z</time>
</trkpt>
<trkpt lat="31.7713041" lon="34.9705144">
<ele>367.000000</ele>
<time>2010-01-01T01:07:51.000Z</time>
</trkpt>
<trkpt lat="31.7714443" lon="34.9704394">
<ele>367.000000</ele>
<time>2010-01-01T01:07:57.000Z</time>
</trkpt>
<trkpt lat="31.7715297" lon="34.9704334">
<ele>368.000000</ele>
<time>2010-01-01T01:08:00.000Z</time>
</trkpt>
<trkpt lat="31.7715733" lon="34.9704444">
<ele>369.000000</ele>
<time>2010-01-01T01:08:02.000Z</time>
</trkpt>
<trkpt lat="31.7717300" lon="34.9705810">
<ele>371.000000</ele>
<time>2010-01-01T01:08:10.000Z</time>
</trkpt>
<trkpt lat="31.7718022" lon="34.9707129">
<ele>372.000000</ele>
<time>2010-01-01T01:08:15.000Z</time>
</trkpt>
<trkpt lat="31.7718493" lon="34.9708224">
<ele>373.000000</ele>
<time>2010-01-01T01:08:19.000Z</time>
</trkpt>
<trkpt lat="31.7720245" lon="34.9714423">
<ele>375.000000</ele>
<time>2010-01-01T01:08:42.000Z</time>
</trkpt>
<trkpt lat="31.7721210" lon="34.9716463">
<ele>376.000000</ele>
<time>2010-01-01T01:08:50.000Z</time>
</trkpt>
<trkpt lat="31.7725614" lon="34.9721526">
<ele>375.000000</ele>
<time>2010-01-01T01:09:14.000Z</time>
</trkpt>
<trkpt lat="31.7726322" lon="34.9723458">
<ele>375.000000</ele>
<time>2010-01-01T01:09:21.000Z</time>
</trkpt>
<trkpt lat="31.7726362" lon="34.9724873">
<ele>375.000000</ele>
<time>2010-01-01T01:09:26.000Z</time>
</trkpt>
<trkpt lat="31.7726232" lon="34.9725609">
<ele>375.000000</ele>
<time>2010-01-01T01:09:29.000Z</time>
</trkpt>
<trkpt lat="31.7724915" lon="34.9729339">
<ele>376.000000</ele>
<time>2010-01-01T01:09:43.000Z</time>
</trkpt>
<trkpt lat="31.7724035" lon="34.9730640">
<ele>379.000000</ele>
<time>2010-01-01T01:09:48.000Z</time>
</trkpt>
<trkpt lat="31.7721140" lon="34.9733505">
<ele>384.000000</ele>
<time>2010-01-01T01:10:03.000Z</time>
</trkpt>
<trkpt lat="31.7718434" lon="34.9735794">
<ele>387.000000</ele>
<time>2010-01-01T01:10:17.000Z</time>
</trkpt>
<trkpt lat="31.7716997" lon="34.9737591">
<ele>387.999969</ele>
<time>2010-01-01T01:10:25.000Z</time>
</trkpt>
<trkpt lat="31.7716380" lon="34.9738693">
<ele>389.000000</ele>
<time>2010-01-01T01:10:30.000Z</time>
</trkpt>
<trkpt lat="31.7715790" lon="34.9740339">
<ele>390.000000</ele>
<time>2010-01-01T01:10:36.000Z</time>
</trkpt>
<trkpt lat="31.7715555" lon="34.9741507">
<ele>390.000000</ele>
<time>2010-01-01T01:10:40.000Z</time>
</trkpt>
<trkpt lat="31.7715412" lon="34.9743514">
<ele>390.000000</ele>
<time>2010-01-01T01:10:47.000Z</time>
</trkpt>
<trkpt lat="31.7715682" lon="34.9745965">
<ele>389.000000</ele>
<time>2010-01-01T01:10:55.000Z</time>
</trkpt>
<trkpt lat="31.7716165" lon="34.9747265">
<ele>389.000000</ele>
<time>2010-01-01T01:11:00.000Z</time>
</trkpt>
<trkpt lat="31.7717014" lon="34.9748641">
<ele>390.000000</ele>
<time>2010-01-01T01:11:06.000Z</time>
</trkpt>
<trkpt lat="31.7722229" lon="34.9755136">
<ele>389.000000</ele>
<time>2010-01-01T01:11:36.000Z</time>
</trkpt>
<trkpt lat="31.7728599" lon="34.9764236">
<ele>387.999969</ele>
<time>2010-01-01T01:12:16.000Z</time>
</trkpt>
<trkpt lat="31.7729669" lon="34.9766316">
<ele>386.000000</ele>
<time>2010-01-01T01:12:24.000Z</time>
</trkpt>
<trkpt lat="31.7730270" lon="34.9768534">
<ele>386.000000</ele>
<time>2010-01-01T01:12:32.000Z</time>
</trkpt>
<trkpt lat="31.7730324" lon="34.9769871">
<ele>386.000000</ele>
<time>2010-01-01T01:12:37.000Z</time>
</trkpt>
<trkpt lat="31.7729846" lon="34.9776246">
<ele>385.000031</ele>
<time>2010-01-01T01:12:59.000Z</time>
</trkpt>
<trkpt lat="31.7729829" lon="34.9778657">
<ele>384.000000</ele>
<time>2010-01-01T01:13:07.000Z</time>
</trkpt>
<trkpt lat="31.7730055" lon="34.9781104">
<ele>382.000000</ele>
<time>2010-01-01T01:13:15.000Z</time>
</trkpt>
<trkpt lat="31.7730640" lon="34.9783529">
<ele>380.000000</ele>
<time>2010-01-01T01:13:24.000Z</time>
</trkpt>
<trkpt lat="31.7732073" lon="34.9787968">
<ele>376.999969</ele>
<time>2010-01-01T01:13:40.000Z</time>
</trkpt>
<trkpt lat="31.7732631" lon="34.9789263">
<ele>376.000000</ele>
<time>2010-01-01T01:13:45.000Z</time>
</trkpt>
<trkpt lat="31.7733489" lon="34.9790529">
<ele>376.999969</ele>
<time>2010-01-01T01:13:50.000Z</time>
</trkpt>
<trkpt lat="31.7735643" lon="34.9791408">
<ele>380.000000</ele>
<time>2010-01-01T01:14:00.000Z</time>
</trkpt>
<trkpt lat="31.7736692" lon="34.9791434">
<ele>381.000000</ele>
<time>2010-01-01T01:14:04.000Z</time>
</trkpt>
<trkpt lat="31.7737209" lon="34.9791309">
<ele>382.000000</ele>
<time>2010-01-01T01:14:06.000Z</time>
</trkpt>
<trkpt lat="31.7738916" lon="34.9790470">
<ele>385.000031</ele>
<time>2010-01-01T01:14:13.000Z</time>
</trkpt>
<trkpt lat="31.7739510" lon="34.9789907">
<ele>385.000031</ele>
<time>2010-01-01T01:14:16.000Z</time>
</trkpt>
<trkpt lat="31.7740534" lon="34.9788486">
<ele>386.000000</ele>
<time>2010-01-01T01:14:23.000Z</time>
</trkpt>
<trkpt lat="31.7740977" lon="34.9787408">
<ele>386.000000</ele>
<time>2010-01-01T01:14:27.000Z</time>
</trkpt>
<trkpt lat="31.7741037" lon="34.9786741">
<ele>385.000031</ele>
<time>2010-01-01T01:14:29.000Z</time>
</trkpt>
<trkpt lat="31.7741737" lon="34.9785093">
<ele>384.000000</ele>
<time>2010-01-01T01:14:35.000Z</time>
</trkpt>
<trkpt lat="31.7743116" lon="34.9783276">
<ele>384.000000</ele>
<time>2010-01-01T01:14:44.000Z</time>
</trkpt>
<trkpt lat="31.7744894" lon="34.9782259">
<ele>386.000000</ele>
<time>2010-01-01T01:14:52.000Z</time>
</trkpt>
<trkpt lat="31.7746014" lon="34.9781809">
<ele>387.000000</ele>
<time>2010-01-01T01:14:56.000Z</time>
</trkpt>
<trkpt lat="31.7747880" lon="34.9781649">
<ele>389.000000</ele>
<time>2010-01-01T01:15:04.000Z</time>
</trkpt>
<trkpt lat="31.7749751" lon="34.9782158">
<ele>391.000000</ele>
<time>2010-01-01T01:15:11.000Z</time>
</trkpt>
<trkpt lat="31.7752833" lon="34.9782685">
<ele>394.000000</ele>
<time>2010-01-01T01:15:24.000Z</time>
</trkpt>
<trkpt lat="31.7756447" lon="34.9783850">
<ele>397.000000</ele>
<time>2010-01-01T01:15:39.000Z</time>
</trkpt>
<trkpt lat="31.7757267" lon="34.9784409">
<ele>397.000000</ele>
<time>2010-01-01T01:15:43.000Z</time>
</trkpt>
<trkpt lat="31.7757951" lon="34.9785053">
<ele>398.000000</ele>
<time>2010-01-01T01:15:46.000Z</time>
</trkpt>
<trkpt lat="31.7758537" lon="34.9783793">
<ele>398.000000</ele>
<time>2010-01-01T01:15:47.000Z</time>
</trkpt>
<trkpt lat="31.7760274" lon="34.9780673">
<ele>398.000000</ele>
<time>2010-01-01T01:16:00.000Z</time>
</trkpt>
<trkpt lat="31.7760874" lon="34.9778704">
<ele>396.000000</ele>
<time>2010-01-01T01:16:07.000Z</time>
</trkpt>
<trkpt lat="31.7763431" lon="34.9773133">
<ele>394.000000</ele>
<time>2010-01-01T01:16:29.000Z</time>
</trkpt>
<trkpt lat="31.7763524" lon="34.9771309">
<ele>395.000000</ele>
<time>2010-01-01T01:16:35.000Z</time>
</trkpt>
<trkpt lat="31.7762557" lon="34.9769837">
<ele>395.000000</ele>
<time>2010-01-01T01:16:41.000Z</time>
</trkpt>
<trkpt lat="31.7759099" lon="34.9766369">
<ele>394.000000</ele>
<time>2010-01-01T01:17:00.000Z</time>
</trkpt>
<trkpt lat="31.7756856" lon="34.9763305">
<ele>390.000000</ele>
<time>2010-01-01T01:17:13.000Z</time>
</trkpt>
<trkpt lat="31.7756049" lon="34.9761754">
<ele>387.999969</ele>
<time>2010-01-01T01:17:19.000Z</time>
</trkpt>
<trkpt lat="31.7755303" lon="34.9759501">
<ele>387.000000</ele>
<time>2010-01-01T01:17:28.000Z</time>
</trkpt>
<trkpt lat="31.7755122" lon="34.9758247">
<ele>387.000000</ele>
<time>2010-01-01T01:17:32.000Z</time>
</trkpt>
<trkpt lat="31.7755247" lon="34.9757005">
<ele>386.000000</ele>
<time>2010-01-01T01:17:36.000Z</time>
</trkpt>
<trkpt lat="31.7757878" lon="34.9750632">
<ele>384.000000</ele>
<time>2010-01-01T01:18:00.000Z</time>
</trkpt>
<trkpt lat="31.7758533" lon="34.9748722">
<ele>384.000000</ele>
<time>2010-01-01T01:18:07.000Z</time>
</trkpt>
<trkpt lat="31.7759073" lon="34.9746786">
<ele>384.000000</ele>
<time>2010-01-01T01:18:14.000Z</time>
</trkpt>
<trkpt lat="31.7759062" lon="34.9745526">
<ele>383.000000</ele>
<time>2010-01-01T01:18:19.000Z</time>
</trkpt>
<trkpt lat="31.7758841" lon="34.9744233">
<ele>382.000000</ele>
<time>2010-01-01T01:18:23.000Z</time>
</trkpt>
<trkpt lat="31.7757833" lon="34.9742457">
<ele>381.000000</ele>
<time>2010-01-01T01:18:30.000Z</time>
</trkpt>
<trkpt lat="31.7756286" lon="34.9740674">
<ele>382.000000</ele>
<time>2010-01-01T01:18:39.000Z</time>
</trkpt>
<trkpt lat="31.7754886" lon="34.9739332">
<ele>382.000000</ele>
<time>2010-01-01T01:18:46.000Z</time>
</trkpt>
<trkpt lat="31.7753152" lon="34.9737206">
<ele>381.000000</ele>
<time>2010-01-01T01:18:56.000Z</time>
</trkpt>
<trkpt lat="31.7752430" lon="34.9735142">
<ele>381.000000</ele>
<time>2010-01-01T01:19:04.000Z</time>
</trkpt>
<trkpt lat="31.7751999" lon="34.9733308">
<ele>381.000000</ele>
<time>2010-01-01T01:19:10.000Z</time>
</trkpt>
<trkpt lat="31.7752928" lon="34.9728820">
<ele>380.000000</ele>
<time>2010-01-01T01:19:26.000Z</time>
</trkpt>
<trkpt lat="31.7754483" lon="34.9724287">
<ele>379.000000</ele>
<time>2010-01-01T01:19:43.000Z</time>
</trkpt>
<trkpt lat="31.7754828" lon="34.9721292">
<ele>381.000000</ele>
<time>2010-01-01T01:19:53.000Z</time>
</trkpt>
<trkpt lat="31.7754657" lon="34.9713448">
<ele>378.000000</ele>
<time>2010-01-01T01:20:20.000Z</time>
</trkpt>
<trkpt lat="31.7755098" lon="34.9710856">
<ele>376.999969</ele>
<time>2010-01-01T01:20:29.000Z</time>
</trkpt>
<trkpt lat="31.7756126" lon="34.9708749">
<ele>375.000000</ele>
<time>2010-01-01T01:20:37.000Z</time>
</trkpt>
<trkpt lat="31.7756477" lon="34.9708482">
<ele>375.000000</ele>
<time>2010-01-01T01:20:39.000Z</time>
</trkpt>
<trkpt lat="31.7757712" lon="34.9708055">
<ele>376.000000</ele>
<time>2010-01-01T01:20:44.000Z</time>
</trkpt>
<trkpt lat="31.7762631" lon="34.9707398">
<ele>376.999969</ele>
<time>2010-01-01T01:21:04.000Z</time>
</trkpt>
<trkpt lat="31.7766996" lon="34.9705843">
<ele>372.000000</ele>
<time>2010-01-01T01:21:22.000Z</time>
</trkpt>
<trkpt lat="31.7767825" lon="34.9705416">
<ele>373.000000</ele>
<time>2010-01-01T01:21:26.000Z</time>
</trkpt>
<trkpt lat="31.7768859" lon="34.9704489">
<ele>372.000000</ele>
<time>2010-01-01T01:21:31.000Z</time>
</trkpt>
<trkpt lat="31.7769823" lon="34.9702400">
<ele>371.000000</ele>
<time>2010-01-01T01:21:39.000Z</time>
</trkpt>
<trkpt lat="31.7769835" lon="34.9701073">
<ele>372.000000</ele>
<time>2010-01-01T01:21:43.000Z</time>
</trkpt>
<trkpt lat="31.7768469" lon="34.9687288">
<ele>373.000000</ele>
<time>2010-01-01T01:22:31.000Z</time>
</trkpt>
<trkpt lat="31.7767946" lon="34.9685277">
<ele>375.000000</ele>
<time>2010-01-01T01:22:38.000Z</time>
</trkpt>
<trkpt lat="31.7767410" lon="34.9684282">
<ele>376.000000</ele>
<time>2010-01-01T01:22:42.000Z</time>
</trkpt>
<trkpt lat="31.7765417" lon="34.9681537">
<ele>375.000000</ele>
<time>2010-01-01T01:22:54.000Z</time>
</trkpt>
<trkpt lat="31.7763317" lon="34.9679100">
<ele>372.000000</ele>
<time>2010-01-01T01:23:06.000Z</time>
</trkpt>
<trkpt lat="31.7758819" lon="34.9674601">
<ele>368.000000</ele>
<time>2010-01-01T01:23:29.000Z</time>
</trkpt>
<trkpt lat="31.7758351" lon="34.9673742">
<ele>368.000000</ele>
<time>2010-01-01T01:23:33.000Z</time>
</trkpt>
<trkpt lat="31.7757857" lon="34.9672266">
<ele>367.000000</ele>
<time>2010-01-01T01:23:38.000Z</time>
</trkpt>
<trkpt lat="31.7758085" lon="34.9670077">
<ele>366.000000</ele>
<time>2010-01-01T01:23:46.000Z</time>
</trkpt>
<trkpt lat="31.7759556" lon="34.9668440">
<ele>365.000000</ele>
<time>2010-01-01T01:23:54.000Z</time>
</trkpt>
<trkpt lat="31.7760844" lon="34.9667712">
<ele>364.000000</ele>
<time>2010-01-01T01:24:00.000Z</time>
</trkpt>
<trkpt lat="31.7761311" lon="34.9667645">
<ele>364.000000</ele>
<time>2010-01-01T01:24:02.000Z</time>
</trkpt>
<trkpt lat="31.7761795" lon="34.9667623">
<ele>364.000000</ele>
<time>2010-01-01T01:24:03.000Z</time>
</trkpt>
<trkpt lat="31.7764196" lon="34.9668249">
<ele>362.999969</ele>
<time>2010-01-01T01:24:13.000Z</time>
</trkpt>
<trkpt lat="31.7769328" lon="34.9669144">
<ele>361.000000</ele>
<time>2010-01-01T01:24:34.000Z</time>
</trkpt>
<trkpt lat="31.7771362" lon="34.9669001">
<ele>361.000000</ele>
<time>2010-01-01T01:24:42.000Z</time>
</trkpt>
<trkpt lat="31.7774402" lon="34.9667973">
<ele>360.000031</ele>
<time>2010-01-01T01:24:55.000Z</time>
</trkpt>
<trkpt lat="31.7777733" lon="34.9666434">
<ele>355.000000</ele>
<time>2010-01-01T01:25:09.000Z</time>
</trkpt>
<trkpt lat="31.7781280" lon="34.9664136">
<ele>351.999969</ele>
<time>2010-01-01T01:25:25.000Z</time>
</trkpt>
<trkpt lat="31.7781903" lon="34.9663165">
<ele>351.999969</ele>
<time>2010-01-01T01:25:30.000Z</time>
</trkpt>
<trkpt lat="31.7782379" lon="34.9661373">
<ele>351.000000</ele>
<time>2010-01-01T01:25:36.000Z</time>
</trkpt>
<trkpt lat="31.7782675" lon="34.9658905">
<ele>353.000000</ele>
<time>2010-01-01T01:25:44.000Z</time>
</trkpt>
<trkpt lat="31.7784215" lon="34.9651665">
<ele>358.000000</ele>
<time>2010-01-01T01:26:10.000Z</time>
</trkpt>
<trkpt lat="31.7784139" lon="34.9650064">
<ele>357.000000</ele>
<time>2010-01-01T01:26:15.000Z</time>
</trkpt>
<trkpt lat="31.7784506" lon="34.9648249">
<ele>357.000000</ele>
<time>2010-01-01T01:26:22.000Z</time>
</trkpt>
<trkpt lat="31.7784970" lon="34.9647031">
<ele>358.000000</ele>
<time>2010-01-01T01:26:26.000Z</time>
</trkpt>
<trkpt lat="31.7784990" lon="34.9646194">
<ele>357.000000</ele>
<time>2010-01-01T01:26:29.000Z</time>
</trkpt>
<trkpt lat="31.7784819" lon="34.9643915">
<ele>356.000000</ele>
<time>2010-01-01T01:26:36.000Z</time>
</trkpt>
<trkpt lat="31.7784727" lon="34.9642252">
<ele>354.000000</ele>
<time>2010-01-01T01:26:43.000Z</time>
</trkpt>
<trkpt lat="31.7785153" lon="34.9639735">
<ele>353.000000</ele>
<time>2010-01-01T01:26:52.000Z</time>
</trkpt>
<trkpt lat="31.7785830" lon="34.9636968">
<ele>351.999969</ele>
<time>2010-01-01T01:27:02.000Z</time>
</trkpt>
<trkpt lat="31.7785707" lon="34.9632586">
<ele>346.000031</ele>
<time>2010-01-01T01:27:17.000Z</time>
</trkpt>
<trkpt lat="31.7786599" lon="34.9631230">
<ele>346.000031</ele>
<time>2010-01-01T01:27:23.000Z</time>
</trkpt>
<trkpt lat="31.7788361" lon="34.9630568">
<ele>349.000031</ele>
<time>2010-01-01T01:27:30.000Z</time>
</trkpt>
<trkpt lat="31.7790036" lon="34.9629580">
<ele>350.000000</ele>
<time>2010-01-01T01:27:37.000Z</time>
</trkpt>
<trkpt lat="31.7791341" lon="34.9628078">
<ele>351.999969</ele>
<time>2010-01-01T01:27:45.000Z</time>
</trkpt>
<trkpt lat="31.7792491" lon="34.9625760">
<ele>351.999969</ele>
<time>2010-01-01T01:27:54.000Z</time>
</trkpt>
<trkpt lat="31.7793728" lon="34.9619409">
<ele>350.000000</ele>
<time>2010-01-01T01:28:16.000Z</time>
</trkpt>
<trkpt lat="31.7794143" lon="34.9618057">
<ele>350.000000</ele>
<time>2010-01-01T01:28:21.000Z</time>
</trkpt>
<trkpt lat="31.7794468" lon="34.9617485">
<ele>350.000000</ele>
<time>2010-01-01T01:28:23.000Z</time>
</trkpt>
<trkpt lat="31.7795526" lon="34.9616705">
<ele>350.000000</ele>
<time>2010-01-01T01:28:28.000Z</time>
</trkpt>
<trkpt lat="31.7797022" lon="34.9616805">
<ele>351.999969</ele>
<time>2010-01-01T01:28:34.000Z</time>
</trkpt>
<trkpt lat="31.7798782" lon="34.9615981">
<ele>351.000000</ele>
<time>2010-01-01T01:28:42.000Z</time>
</trkpt>
<trkpt lat="31.7799460" lon="34.9615420">
<ele>350.000000</ele>
<time>2010-01-01T01:28:45.000Z</time>
</trkpt>
<trkpt lat="31.7801410" lon="34.9613029">
<ele>347.000000</ele>
<time>2010-01-01T01:28:56.000Z</time>
</trkpt>
<trkpt lat="31.7802565" lon="34.9612025">
<ele>347.000000</ele>
<time>2010-01-01T01:29:02.000Z</time>
</trkpt>
<trkpt lat="31.7803389" lon="34.9610682">
<ele>346.000031</ele>
<time>2010-01-01T01:29:08.000Z</time>
</trkpt>
<trkpt lat="31.7805672" lon="34.9604724">
<ele>342.000000</ele>
<time>2010-01-01T01:29:30.000Z</time>
</trkpt>
<trkpt lat="31.7805993" lon="34.9603355">
<ele>341.000000</ele>
<time>2010-01-01T01:29:35.000Z</time>
</trkpt>
<trkpt lat="31.7806256" lon="34.9600892">
<ele>337.999969</ele>
<time>2010-01-01T01:29:44.000Z</time>
</trkpt>
<trkpt lat="31.7807113" lon="34.9599395">
<ele>337.999969</ele>
<time>2010-01-01T01:29:50.000Z</time>
</trkpt>
<trkpt lat="31.7807670" lon="34.9596923">
<ele>337.000000</ele>
<time>2010-01-01T01:29:59.000Z</time>
</trkpt>
<trkpt lat="31.7808299" lon="34.9595079">
<ele>337.999969</ele>
<time>2010-01-01T01:30:06.000Z</time>
</trkpt>
<trkpt lat="31.7809830" lon="34.9591114">
<ele>334.000000</ele>
<time>2010-01-01T01:30:21.000Z</time>
</trkpt>
<trkpt lat="31.7812519" lon="34.9587696">
<ele>332.000000</ele>
<time>2010-01-01T01:30:37.000Z</time>
</trkpt>
<trkpt lat="31.7813427" lon="34.9585855">
<ele>331.000000</ele>
<time>2010-01-01T01:30:44.000Z</time>
</trkpt>
<trkpt lat="31.7815806" lon="34.9584057">
<ele>331.000000</ele>
<time>2010-01-01T01:30:55.000Z</time>
</trkpt>
<trkpt lat="31.7817602" lon="34.9583884">
<ele>331.000000</ele>
<time>2010-01-01T01:31:03.000Z</time>
</trkpt>
<trkpt lat="31.7821080" lon="34.9582537">
<ele>328.000000</ele>
<time>2010-01-01T01:31:17.000Z</time>
</trkpt>
<trkpt lat="31.7821768" lon="34.9582041">
<ele>328.000000</ele>
<time>2010-01-01T01:31:21.000Z</time>
</trkpt>
<trkpt lat="31.7822230" lon="34.9581295">
<ele>326.999969</ele>
<time>2010-01-01T01:31:24.000Z</time>
</trkpt>
<trkpt lat="31.7823216" lon="34.9580738">
<ele>326.999969</ele>
<time>2010-01-01T01:31:28.000Z</time>
</trkpt>
<trkpt lat="31.7824190" lon="34.9580542">
<ele>326.000000</ele>
<time>2010-01-01T01:31:32.000Z</time>
</trkpt>
<trkpt lat="31.7825896" lon="34.9579810">
<ele>325.000000</ele>
<time>2010-01-01T01:31:39.000Z</time>
</trkpt>
<trkpt lat="31.7828807" lon="34.9580314">
<ele>323.000000</ele>
<time>2010-01-01T01:31:51.000Z</time>
</trkpt>
<trkpt lat="31.7830562" lon="34.9579782">
<ele>319.000000</ele>
<time>2010-01-01T01:31:58.000Z</time>
</trkpt>
<trkpt lat="31.7831466" lon="34.9579266">
<ele>318.000000</ele>
<time>2010-01-01T01:32:02.000Z</time>
</trkpt>
<trkpt lat="31.7833243" lon="34.9577262">
<ele>315.000000</ele>
<time>2010-01-01T01:32:12.000Z</time>
</trkpt>
<trkpt lat="31.7833452" lon="34.9575959">
<ele>314.000000</ele>
<time>2010-01-01T01:32:17.000Z</time>
</trkpt>
<trkpt lat="31.7833440" lon="34.9575034">
<ele>314.000000</ele>
<time>2010-01-01T01:32:20.000Z</time>
</trkpt>
<trkpt lat="31.7833865" lon="34.9574206">
<ele>312.000000</ele>
<time>2010-01-01T01:32:23.000Z</time>
</trkpt>
<trkpt lat="31.7835103" lon="34.9573724">
<ele>311.000000</ele>
<time>2010-01-01T01:32:28.000Z</time>
</trkpt>
<trkpt lat="31.7838218" lon="34.9573148">
<ele>309.000000</ele>
<time>2010-01-01T01:32:41.000Z</time>
</trkpt>
<trkpt lat="31.7840176" lon="34.9572264">
<ele>308.000000</ele>
<time>2010-01-01T01:32:49.000Z</time>
</trkpt>
<trkpt lat="31.7841828" lon="34.9571698">
<ele>307.000000</ele>
<time>2010-01-01T01:32:56.000Z</time>
</trkpt>
<trkpt lat="31.7843337" lon="34.9570888">
<ele>306.000000</ele>
<time>2010-01-01T01:33:03.000Z</time>
</trkpt>
<trkpt lat="31.7845549" lon="34.9570264">
<ele>307.000000</ele>
<time>2010-01-01T01:33:12.000Z</time>
</trkpt>
<trkpt lat="31.7849014" lon="34.9567718">
<ele>307.000000</ele>
<time>2010-01-01T01:33:28.000Z</time>
</trkpt>
<trkpt lat="31.7852887" lon="34.9564454">
<ele>306.000000</ele>
<time>2010-01-01T01:33:47.000Z</time>
</trkpt>
<trkpt lat="31.7854558" lon="34.9562359">
<ele>305.000000</ele>
<time>2010-01-01T01:33:57.000Z</time>
</trkpt>
<trkpt lat="31.7856366" lon="34.9560836">
<ele>306.000000</ele>
<time>2010-01-01T01:34:06.000Z</time>
</trkpt>
<trkpt lat="31.7859805" lon="34.9559550">
<ele>307.000000</ele>
<time>2010-01-01T01:34:21.000Z</time>
</trkpt>
<trkpt lat="31.7860408" lon="34.9559147">
<ele>308.000000</ele>
<time>2010-01-01T01:34:23.000Z</time>
</trkpt>
<trkpt lat="31.7861590" lon="34.9557395">
<ele>306.000000</ele>
<time>2010-01-01T01:34:31.000Z</time>
</trkpt>
<trkpt lat="31.7863130" lon="34.9556182">
<ele>304.000000</ele>
<time>2010-01-01T01:34:38.000Z</time>
</trkpt>
<trkpt lat="31.7865664" lon="34.9555255">
<ele>302.000000</ele>
<time>2010-01-01T01:34:49.000Z</time>
</trkpt>
<trkpt lat="31.7873439" lon="34.9553641">
<ele>294.000000</ele>
<time>2010-01-01T01:35:21.000Z</time>
</trkpt>
<trkpt lat="31.7878278" lon="34.9552255">
<ele>288.000000</ele>
<time>2010-01-01T01:35:41.000Z</time>
</trkpt>
<trkpt lat="31.7879520" lon="34.9552067">
<ele>286.000000</ele>
<time>2010-01-01T01:35:46.000Z</time>
</trkpt>
<trkpt lat="31.7880683" lon="34.9552265">
<ele>285.000000</ele>
<time>2010-01-01T01:35:50.000Z</time>
</trkpt>
<trkpt lat="31.7881319" lon="34.9552789">
<ele>285.000000</ele>
<time>2010-01-01T01:35:53.000Z</time>
</trkpt>
<trkpt lat="31.7881529" lon="34.9553196">
<ele>284.000000</ele>
<time>2010-01-01T01:35:55.000Z</time>
</trkpt>
<trkpt lat="31.7881488" lon="34.9554168">
<ele>284.000000</ele>
<time>2010-01-01T01:35:58.000Z</time>
</trkpt>
<trkpt lat="31.7881326" lon="34.9554567">
<ele>284.000000</ele>
<time>2010-01-01T01:36:00.000Z</time>
</trkpt>
<trkpt lat="31.7880737" lon="34.9555157">
<ele>285.000000</ele>
<time>2010-01-01T01:36:03.000Z</time>
</trkpt>
<trkpt lat="31.7874975" lon="34.9559831">
<ele>289.000000</ele>
<time>2010-01-01T01:36:31.000Z</time>
</trkpt>
<trkpt lat="31.7871599" lon="34.9561677">
<ele>291.000000</ele>
<time>2010-01-01T01:36:46.000Z</time>
</trkpt>
<trkpt lat="31.7868130" lon="34.9563253">
<ele>292.000000</ele>
<time>2010-01-01T01:37:01.000Z</time>
</trkpt>
<trkpt lat="31.7865792" lon="34.9564702">
<ele>293.000000</ele>
<time>2010-01-01T01:37:11.000Z</time>
</trkpt>
<trkpt lat="31.7863803" lon="34.9566554">
<ele>292.000000</ele>
<time>2010-01-01T01:37:21.000Z</time>
</trkpt>
<trkpt lat="31.7861927" lon="34.9568692">
<ele>293.000000</ele>
<time>2010-01-01T01:37:32.000Z</time>
</trkpt>
<trkpt lat="31.7858166" lon="34.9571703">
<ele>293.000000</ele>
<time>2010-01-01T01:37:50.000Z</time>
</trkpt>
<trkpt lat="31.7852618" lon="34.9577159">
<ele>288.000000</ele>
<time>2010-01-01T01:38:19.000Z</time>
</trkpt>
<trkpt lat="31.7848605" lon="34.9580323">
<ele>287.000000</ele>
<time>2010-01-01T01:38:38.000Z</time>
</trkpt>
<trkpt lat="31.7843918" lon="34.9584940">
<ele>287.000000</ele>
<time>2010-01-01T01:39:03.000Z</time>
</trkpt>
<trkpt lat="31.7841199" lon="34.9588007">
<ele>286.000000</ele>
<time>2010-01-01T01:39:18.000Z</time>
</trkpt>
<trkpt lat="31.7839023" lon="34.9589469">
<ele>288.000000</ele>
<time>2010-01-01T01:39:28.000Z</time>
</trkpt>
<trkpt lat="31.7833441" lon="34.9592691">
<ele>295.000000</ele>
<time>2010-01-01T01:39:53.000Z</time>
</trkpt>
<trkpt lat="31.7830328" lon="34.9594139">
<ele>295.000000</ele>
<time>2010-01-01T01:40:06.000Z</time>
</trkpt>
<trkpt lat="31.7827836" lon="34.9596029">
<ele>299.000000</ele>
<time>2010-01-01T01:40:18.000Z</time>
</trkpt>
<trkpt lat="31.7826744" lon="34.9597030">
<ele>303.000000</ele>
<time>2010-01-01T01:40:26.000Z</time>
</trkpt>
<trkpt lat="31.7826972" lon="34.9598050">
<ele>304.000000</ele>
<time>2010-01-01T01:40:29.000Z</time>
</trkpt>
<trkpt lat="31.7827155" lon="34.9599123">
<ele>304.000000</ele>
<time>2010-01-01T01:40:30.000Z</time>
</trkpt>
<trkpt lat="31.7827655" lon="34.9601193">
<ele>299.000000</ele>
<time>2010-01-01T01:40:40.000Z</time>
</trkpt>
<trkpt lat="31.7827721" lon="34.9602547">
<ele>300.000000</ele>
<time>2010-01-01T01:40:45.000Z</time>
</trkpt>
<trkpt lat="31.7825949" lon="34.9611441">
<ele>301.000000</ele>
<time>2010-01-01T01:41:16.000Z</time>
</trkpt>
<trkpt lat="31.7824704" lon="34.9615360">
<ele>300.000000</ele>
<time>2010-01-01T01:41:30.000Z</time>
</trkpt>
<trkpt lat="31.7823411" lon="34.9617832">
<ele>300.000000</ele>
<time>2010-01-01T01:41:40.000Z</time>
</trkpt>
<trkpt lat="31.7822971" lon="34.9619441">
<ele>300.000000</ele>
<time>2010-01-01T01:41:46.000Z</time>
</trkpt>
<trkpt lat="31.7819096" lon="34.9628450">
<ele>298.000000</ele>
<time>2010-01-01T01:42:20.000Z</time>
</trkpt>
<trkpt lat="31.7818058" lon="34.9630457">
<ele>298.000000</ele>
<time>2010-01-01T01:42:28.000Z</time>
</trkpt>
<trkpt lat="31.7816770" lon="34.9634450">
<ele>298.000000</ele>
<time>2010-01-01T01:42:43.000Z</time>
</trkpt>
<trkpt lat="31.7815954" lon="34.9636295">
<ele>299.000000</ele>
<time>2010-01-01T01:42:50.000Z</time>
</trkpt>
<trkpt lat="31.7813853" lon="34.9639793">
<ele>303.000000</ele>
<time>2010-01-01T01:43:04.000Z</time>
</trkpt>
<trkpt lat="31.7810714" lon="34.9643194">
<ele>306.000000</ele>
<time>2010-01-01T01:43:21.000Z</time>
</trkpt>
<trkpt lat="31.7809891" lon="34.9644779">
<ele>306.000000</ele>
<time>2010-01-01T01:43:28.000Z</time>
</trkpt>
<trkpt lat="31.7809297" lon="34.9646334">
<ele>307.000000</ele>
<time>2010-01-01T01:43:34.000Z</time>
</trkpt>
<trkpt lat="31.7813486" lon="34.9645310">
<ele>303.000000</ele>
<time>2010-01-01T01:43:51.000Z</time>
</trkpt>
<trkpt lat="31.7817909" lon="34.9643915">
<ele>299.000000</ele>
<time>2010-01-01T01:44:09.000Z</time>
</trkpt>
<trkpt lat="31.7820371" lon="34.9643754">
<ele>298.000000</ele>
<time>2010-01-01T01:44:19.000Z</time>
</trkpt>
<trkpt lat="31.7823883" lon="34.9644398">
<ele>298.000000</ele>
<time>2010-01-01T01:44:33.000Z</time>
</trkpt>
<trkpt lat="31.7828306" lon="34.9648743">
<ele>308.000000</ele>
<time>2010-01-01T01:44:56.000Z</time>
</trkpt>
<trkpt lat="31.7837152" lon="34.9650621">
<ele>306.000000</ele>
<time>2010-01-01T01:45:32.000Z</time>
</trkpt>
<trkpt lat="31.7841393" lon="34.9652284">
<ele>305.000000</ele>
<time>2010-01-01T01:45:50.000Z</time>
</trkpt>
<trkpt lat="31.7842300" lon="34.9653303">
<ele>305.000000</ele>
<time>2010-01-01T01:45:54.000Z</time>
</trkpt>
<trkpt lat="31.7846090" lon="34.9656414">
<ele>305.000000</ele>
<time>2010-01-01T01:46:14.000Z</time>
</trkpt>
<trkpt lat="31.7847363" lon="34.9661618">
<ele>303.000000</ele>
<time>2010-01-01T01:46:36.000Z</time>
</trkpt>
<trkpt lat="31.7844946" lon="34.9671113">
<ele>304.000000</ele>
<time>2010-01-01T01:47:04.000Z</time>
</trkpt>
<trkpt lat="31.7830860" lon="34.9685168">
<ele>323.000000</ele>
<time>2010-01-01T01:48:17.000Z</time>
</trkpt>
<trkpt lat="31.7824658" lon="34.9699115">
<ele>337.000000</ele>
<time>2010-01-01T01:49:11.000Z</time>
</trkpt>
<trkpt lat="31.7815903" lon="34.9708557">
<ele>357.000000</ele>
<time>2010-01-01T01:49:58.000Z</time>
</trkpt>
<trkpt lat="31.7813349" lon="34.9706840">
<ele>362.000000</ele>
<time>2010-01-01T01:50:10.000Z</time>
</trkpt>
<trkpt lat="31.7810066" lon="34.9712419">
<ele>374.000031</ele>
<time>2010-01-01T01:50:33.000Z</time>
</trkpt>
<trkpt lat="31.7813987" lon="34.9718642">
<ele>374.000031</ele>
<time>2010-01-01T01:51:00.000Z</time>
</trkpt>
<trkpt lat="31.7800763" lon="34.9719285">
<ele>391.000000</ele>
<time>2010-01-01T01:51:53.000Z</time>
</trkpt>
<trkpt lat="31.7767838" lon="34.9720466">
<ele>397.000000</ele>
<time>2010-01-01T01:54:04.000Z</time>
</trkpt>
<trkpt lat="31.7767293" lon="34.9722772">
<ele>397.000000</ele>
<time>2010-01-01T01:54:13.000Z</time>
</trkpt>
<trkpt lat="31.7767125" lon="34.9724430">
<ele>397.000000</ele>
<time>2010-01-01T01:54:18.000Z</time>
</trkpt>
<trkpt lat="31.7767201" lon="34.9725575">
<ele>397.000000</ele>
<time>2010-01-01T01:54:22.000Z</time>
</trkpt>
<trkpt lat="31.7767969" lon="34.9727574">
<ele>398.000000</ele>
<time>2010-01-01T01:54:30.000Z</time>
</trkpt>
<trkpt lat="31.7769371" lon="34.9733315">
<ele>392.000000</ele>
<time>2010-01-01T01:54:50.000Z</time>
</trkpt>
<trkpt lat="31.7770087" lon="34.9735663">
<ele>385.000031</ele>
<time>2010-01-01T01:54:59.000Z</time>
</trkpt>
<trkpt lat="31.7770471" lon="34.9736470">
<ele>383.000000</ele>
<time>2010-01-01T01:55:02.000Z</time>
</trkpt>
<trkpt lat="31.7770793" lon="34.9736823">
<ele>382.000000</ele>
<time>2010-01-01T01:55:03.000Z</time>
</trkpt>
<trkpt lat="31.7771218" lon="34.9736801">
<ele>381.000000</ele>
<time>2010-01-01T01:55:05.000Z</time>
</trkpt>
<trkpt lat="31.7771580" lon="34.9736567">
<ele>380.000000</ele>
<time>2010-01-01T01:55:07.000Z</time>
</trkpt>
<trkpt lat="31.7772617" lon="34.9734741">
<ele>380.000000</ele>
<time>2010-01-01T01:55:14.000Z</time>
</trkpt>
<trkpt lat="31.7774792" lon="34.9732743">
<ele>380.000000</ele>
<time>2010-01-01T01:55:25.000Z</time>
</trkpt>
<trkpt lat="31.7776217" lon="34.9732147">
<ele>379.000000</ele>
<time>2010-01-01T01:55:31.000Z</time>
</trkpt>
<trkpt lat="31.7777679" lon="34.9732015">
<ele>376.999969</ele>
<time>2010-01-01T01:55:37.000Z</time>
</trkpt>
<trkpt lat="31.7780062" lon="34.9731514">
<ele>376.000000</ele>
<time>2010-01-01T01:55:47.000Z</time>
</trkpt>
<trkpt lat="31.7781055" lon="34.9731694">
<ele>375.000000</ele>
<time>2010-01-01T01:55:51.000Z</time>
</trkpt>
<trkpt lat="31.7791843" lon="34.9732451">
<ele>372.000000</ele>
<time>2010-01-01T01:56:34.000Z</time>
</trkpt>
<trkpt lat="31.7793824" lon="34.9733046">
<ele>369.000000</ele>
<time>2010-01-01T01:56:42.000Z</time>
</trkpt>
<trkpt lat="31.7795784" lon="34.9733239">
<ele>368.000000</ele>
<time>2010-01-01T01:56:50.000Z</time>
</trkpt>
<trkpt lat="31.7800460" lon="34.9732682">
<ele>369.000000</ele>
<time>2010-01-01T01:57:09.000Z</time>
</trkpt>
<trkpt lat="31.7803896" lon="34.9731564">
<ele>369.000000</ele>
<time>2010-01-01T01:57:23.000Z</time>
</trkpt>
<trkpt lat="31.7805611" lon="34.9731413">
<ele>368.000000</ele>
<time>2010-01-01T01:57:30.000Z</time>
</trkpt>
<trkpt lat="31.7806373" lon="34.9731515">
<ele>367.000000</ele>
<time>2010-01-01T01:57:33.000Z</time>
</trkpt>
<trkpt lat="31.7808425" lon="34.9732149">
<ele>364.000000</ele>
<time>2010-01-01T01:57:42.000Z</time>
</trkpt>
<trkpt lat="31.7809948" lon="34.9732767">
<ele>361.000000</ele>
<time>2010-01-01T01:57:48.000Z</time>
</trkpt>
<trkpt lat="31.7811208" lon="34.9732962">
<ele>360.000031</ele>
<time>2010-01-01T01:57:53.000Z</time>
</trkpt>
<trkpt lat="31.7813020" lon="34.9732837">
<ele>358.000000</ele>
<time>2010-01-01T01:58:01.000Z</time>
</trkpt>
<trkpt lat="31.7813631" lon="34.9732691">
<ele>357.000000</ele>
<time>2010-01-01T01:58:03.000Z</time>
</trkpt>
<trkpt lat="31.7815109" lon="34.9731762">
<ele>358.000000</ele>
<time>2010-01-01T01:58:10.000Z</time>
</trkpt>
<trkpt lat="31.7819820" lon="34.9728226">
<ele>362.000000</ele>
<time>2010-01-01T01:58:32.000Z</time>
</trkpt>
<trkpt lat="31.7822042" lon="34.9727761">
<ele>362.000000</ele>
<time>2010-01-01T01:58:41.000Z</time>
</trkpt>
<trkpt lat="31.7823821" lon="34.9728258">
<ele>360.000031</ele>
<time>2010-01-01T01:58:49.000Z</time>
</trkpt>
<trkpt lat="31.7825682" lon="34.9729637">
<ele>357.000000</ele>
<time>2010-01-01T01:58:57.000Z</time>
</trkpt>
<trkpt lat="31.7829856" lon="34.9734515">
<ele>349.000031</ele>
<time>2010-01-01T01:59:21.000Z</time>
</trkpt>
<trkpt lat="31.7831882" lon="34.9736105">
<ele>346.000031</ele>
<time>2010-01-01T01:59:31.000Z</time>
</trkpt>
<trkpt lat="31.7834581" lon="34.9737233">
<ele>346.000031</ele>
<time>2010-01-01T01:59:42.000Z</time>
</trkpt>
<trkpt lat="31.7837202" lon="34.9737706">
<ele>344.000000</ele>
<time>2010-01-01T01:59:53.000Z</time>
</trkpt>
<trkpt lat="31.7838174" lon="34.9737669">
<ele>343.000000</ele>
<time>2010-01-01T01:59:57.000Z</time>
</trkpt>
<trkpt lat="31.7840177" lon="34.9737178">
<ele>341.000000</ele>
<time>2010-01-01T02:00:05.000Z</time>
</trkpt>
<trkpt lat="31.7841120" lon="34.9736651">
<ele>340.000000</ele>
<time>2010-01-01T02:00:09.000Z</time>
</trkpt>
<trkpt lat="31.7842235" lon="34.9735369">
<ele>340.000000</ele>
<time>2010-01-01T02:00:15.000Z</time>
</trkpt>
<trkpt lat="31.7842457" lon="34.9734815">
<ele>339.000000</ele>
<time>2010-01-01T02:00:17.000Z</time>
</trkpt>
<trkpt lat="31.7842630" lon="34.9733592">
<ele>340.000000</ele>
<time>2010-01-01T02:00:22.000Z</time>
</trkpt>
<trkpt lat="31.7842549" lon="34.9728878">
<ele>343.000000</ele>
<time>2010-01-01T02:00:38.000Z</time>
</trkpt>
<trkpt lat="31.7842800" lon="34.9727913">
<ele>344.000000</ele>
<time>2010-01-01T02:00:41.000Z</time>
</trkpt>
<trkpt lat="31.7843698" lon="34.9727188">
<ele>344.000000</ele>
<time>2010-01-01T02:00:45.000Z</time>
</trkpt>
<trkpt lat="31.7847008" lon="34.9728475">
<ele>337.999969</ele>
<time>2010-01-01T02:00:59.000Z</time>
</trkpt>
<trkpt lat="31.7847935" lon="34.9728501">
<ele>337.999969</ele>
<time>2010-01-01T02:01:03.000Z</time>
</trkpt>
<trkpt lat="31.7849341" lon="34.9728166">
<ele>340.000000</ele>
<time>2010-01-01T02:01:09.000Z</time>
</trkpt>
<trkpt lat="31.7851246" lon="34.9727340">
<ele>342.000000</ele>
<time>2010-01-01T02:01:17.000Z</time>
</trkpt>
<trkpt lat="31.7852550" lon="34.9727320">
<ele>341.000000</ele>
<time>2010-01-01T02:01:22.000Z</time>
</trkpt>
<trkpt lat="31.7853763" lon="34.9727584">
<ele>341.000000</ele>
<time>2010-01-01T02:01:27.000Z</time>
</trkpt>
<trkpt lat="31.7855020" lon="34.9728134">
<ele>339.000000</ele>
<time>2010-01-01T02:01:32.000Z</time>
</trkpt>
<trkpt lat="31.7855936" lon="34.9728141">
<ele>337.999969</ele>
<time>2010-01-01T02:01:36.000Z</time>
</trkpt>
<trkpt lat="31.7857729" lon="34.9727462">
<ele>337.000000</ele>
<time>2010-01-01T02:01:44.000Z</time>
</trkpt>
<trkpt lat="31.7859117" lon="34.9727290">
<ele>337.000000</ele>
<time>2010-01-01T02:01:49.000Z</time>
</trkpt>
<trkpt lat="31.7866076" lon="34.9727928">
<ele>323.000000</ele>
<time>2010-01-01T02:02:17.000Z</time>
</trkpt>
<trkpt lat="31.7867619" lon="34.9728603">
<ele>321.000031</ele>
<time>2010-01-01T02:02:24.000Z</time>
</trkpt>
<trkpt lat="31.7868890" lon="34.9728980">
<ele>319.000000</ele>
<time>2010-01-01T02:02:29.000Z</time>
</trkpt>
<trkpt lat="31.7870761" lon="34.9728829">
<ele>319.000000</ele>
<time>2010-01-01T02:02:36.000Z</time>
</trkpt>
<trkpt lat="31.7874181" lon="34.9726765">
<ele>325.000000</ele>
<time>2010-01-01T02:02:52.000Z</time>
</trkpt>
<trkpt lat="31.7875085" lon="34.9726812">
<ele>326.000000</ele>
<time>2010-01-01T02:02:56.000Z</time>
</trkpt>
<trkpt lat="31.7876293" lon="34.9727687">
<ele>323.999969</ele>
<time>2010-01-01T02:03:01.000Z</time>
</trkpt>
<trkpt lat="31.7878532" lon="34.9728986">
<ele>323.000000</ele>
<time>2010-01-01T02:03:11.000Z</time>
</trkpt>
<trkpt lat="31.7880865" lon="34.9729357">
<ele>321.000031</ele>
<time>2010-01-01T02:03:21.000Z</time>
</trkpt>
<trkpt lat="31.7883315" lon="34.9729303">
<ele>321.000031</ele>
<time>2010-01-01T02:03:30.000Z</time>
</trkpt>
<trkpt lat="31.7884746" lon="34.9729913">
<ele>320.000000</ele>
<time>2010-01-01T02:03:37.000Z</time>
</trkpt>
<trkpt lat="31.7887367" lon="34.9731389">
<ele>317.000000</ele>
<time>2010-01-01T02:03:48.000Z</time>
</trkpt>
<trkpt lat="31.7888172" lon="34.9731381">
<ele>316.000000</ele>
<time>2010-01-01T02:03:51.000Z</time>
</trkpt>
<trkpt lat="31.7889027" lon="34.9730986">
<ele>315.000000</ele>
<time>2010-01-01T02:03:55.000Z</time>
</trkpt>
<trkpt lat="31.7889577" lon="34.9730034">
<ele>315.000000</ele>
<time>2010-01-01T02:03:59.000Z</time>
</trkpt>
<trkpt lat="31.7889600" lon="34.9729687">
<ele>315.000000</ele>
<time>2010-01-01T02:04:00.000Z</time>
</trkpt>
<trkpt lat="31.7889496" lon="34.9727722">
<ele>317.000000</ele>
<time>2010-01-01T02:04:07.000Z</time>
</trkpt>
<trkpt lat="31.7889164" lon="34.9725660">
<ele>319.000000</ele>
<time>2010-01-01T02:04:14.000Z</time>
</trkpt>
<trkpt lat="31.7887541" lon="34.9721448">
<ele>321.000031</ele>
<time>2010-01-01T02:04:30.000Z</time>
</trkpt>
<trkpt lat="31.7886694" lon="34.9716529">
<ele>322.000000</ele>
<time>2010-01-01T02:04:47.000Z</time>
</trkpt>
<trkpt lat="31.7884976" lon="34.9709312">
<ele>323.999969</ele>
<time>2010-01-01T02:05:12.000Z</time>
</trkpt>
<trkpt lat="31.7884961" lon="34.9705323">
<ele>320.000000</ele>
<time>2010-01-01T02:05:26.000Z</time>
</trkpt>
<trkpt lat="31.7884391" lon="34.9703538">
<ele>319.000000</ele>
<time>2010-01-01T02:05:32.000Z</time>
</trkpt>
<trkpt lat="31.7882853" lon="34.9701079">
<ele>318.000000</ele>
<time>2010-01-01T02:05:43.000Z</time>
</trkpt>
<trkpt lat="31.7881089" lon="34.9699107">
<ele>317.000000</ele>
<time>2010-01-01T02:05:52.000Z</time>
</trkpt>
<trkpt lat="31.7879508" lon="34.9698026">
<ele>318.000000</ele>
<time>2010-01-01T02:06:00.000Z</time>
</trkpt>
<trkpt lat="31.7878043" lon="34.9696607">
<ele>317.000000</ele>
<time>2010-01-01T02:06:07.000Z</time>
</trkpt>
<trkpt lat="31.7873010" lon="34.9692359">
<ele>314.000000</ele>
<time>2010-01-01T02:06:32.000Z</time>
</trkpt>
<trkpt lat="31.7871841" lon="34.9692349">
<ele>315.000000</ele>
<time>2010-01-01T02:06:37.000Z</time>
</trkpt>
<trkpt lat="31.7867796" lon="34.9693026">
<ele>319.000000</ele>
<time>2010-01-01T02:06:53.000Z</time>
</trkpt>
<trkpt lat="31.7866985" lon="34.9692088">
<ele>319.000000</ele>
<time>2010-01-01T02:06:58.000Z</time>
</trkpt>
<trkpt lat="31.7867410" lon="34.9687837">
<ele>314.000000</ele>
<time>2010-01-01T02:07:12.000Z</time>
</trkpt>
<trkpt lat="31.7867056" lon="34.9685957">
<ele>312.999969</ele>
<time>2010-01-01T02:07:19.000Z</time>
</trkpt>
<trkpt lat="31.7866268" lon="34.9683337">
<ele>311.000000</ele>
<time>2010-01-01T02:07:28.000Z</time>
</trkpt>
<trkpt lat="31.7864279" lon="34.9679086">
<ele>311.000000</ele>
<time>2010-01-01T02:07:45.000Z</time>
</trkpt>
<trkpt lat="31.7863465" lon="34.9673280">
<ele>307.000000</ele>
<time>2010-01-01T02:08:05.000Z</time>
</trkpt>
<trkpt lat="31.7862767" lon="34.9671133">
<ele>304.000000</ele>
<time>2010-01-01T02:08:13.000Z</time>
</trkpt>
<trkpt lat="31.7861850" lon="34.9669312">
<ele>302.000000</ele>
<time>2010-01-01T02:08:20.000Z</time>
</trkpt>
<trkpt lat="31.7860849" lon="34.9668180">
<ele>302.000000</ele>
<time>2010-01-01T02:08:25.000Z</time>
</trkpt>
<trkpt lat="31.7859656" lon="34.9667301">
<ele>301.000000</ele>
<time>2010-01-01T02:08:31.000Z</time>
</trkpt>
<trkpt lat="31.7857720" lon="34.9666293">
<ele>301.000000</ele>
<time>2010-01-01T02:08:40.000Z</time>
</trkpt>
<trkpt lat="31.7856879" lon="34.9666118">
<ele>300.000000</ele>
<time>2010-01-01T02:08:43.000Z</time>
</trkpt>
<trkpt lat="31.7855549" lon="34.9666290">
<ele>300.000000</ele>
<time>2010-01-01T02:08:48.000Z</time>
</trkpt>
<trkpt lat="31.7854084" lon="34.9666832">
<ele>300.000000</ele>
<time>2010-01-01T02:08:55.000Z</time>
</trkpt>
<trkpt lat="31.7852829" lon="34.9666786">
<ele>300.000000</ele>
<time>2010-01-01T02:09:00.000Z</time>
</trkpt>
<trkpt lat="31.7852724" lon="34.9666646">
<ele>299.000000</ele>
<time>2010-01-01T02:09:00.000Z</time>
</trkpt>
<trkpt lat="31.7852889" lon="34.9665965">
<ele>299.000000</ele>
<time>2010-01-01T02:09:03.000Z</time>
</trkpt>
<trkpt lat="31.7853582" lon="34.9664412">
<ele>298.000000</ele>
<time>2010-01-01T02:09:09.000Z</time>
</trkpt>
<trkpt lat="31.7855049" lon="34.9662422">
<ele>295.000000</ele>
<time>2010-01-01T02:09:18.000Z</time>
</trkpt>
<trkpt lat="31.7858881" lon="34.9659360">
<ele>291.000000</ele>
<time>2010-01-01T02:09:36.000Z</time>
</trkpt>
<trkpt lat="31.7862989" lon="34.9653554">
<ele>283.000000</ele>
<time>2010-01-01T02:10:02.000Z</time>
</trkpt>
<trkpt lat="31.7863594" lon="34.9653107">
<ele>282.000000</ele>
<time>2010-01-01T02:10:05.000Z</time>
</trkpt>
<trkpt lat="31.7865634" lon="34.9652213">
<ele>279.000000</ele>
<time>2010-01-01T02:10:13.000Z</time>
</trkpt>
<trkpt lat="31.7867699" lon="34.9651565">
<ele>276.000000</ele>
<time>2010-01-01T02:10:22.000Z</time>
</trkpt>
<trkpt lat="31.7870862" lon="34.9650146">
<ele>271.000000</ele>
<time>2010-01-01T02:10:35.000Z</time>
</trkpt>
<trkpt lat="31.7873568" lon="34.9649975">
<ele>268.000000</ele>
<time>2010-01-01T02:10:46.000Z</time>
</trkpt>
<trkpt lat="31.7874999" lon="34.9649719">
<ele>266.000000</ele>
<time>2010-01-01T02:10:52.000Z</time>
</trkpt>
<trkpt lat="31.7877166" lon="34.9648546">
<ele>264.000000</ele>
<time>2010-01-01T02:11:02.000Z</time>
</trkpt>
<trkpt lat="31.7879698" lon="34.9647624">
<ele>261.000000</ele>
<time>2010-01-01T02:11:12.000Z</time>
</trkpt>
<trkpt lat="31.7882302" lon="34.9647492">
<ele>259.000000</ele>
<time>2010-01-01T02:11:23.000Z</time>
</trkpt>
<trkpt lat="31.7888003" lon="34.9648049">
<ele>254.000000</ele>
<time>2010-01-01T02:11:46.000Z</time>
</trkpt>
<trkpt lat="31.7893508" lon="34.9647321">
<ele>249.000000</ele>
<time>2010-01-01T02:12:08.000Z</time>
</trkpt>
<trkpt lat="31.7898859" lon="34.9645182">
<ele>242.000000</ele>
<time>2010-01-01T02:12:30.000Z</time>
</trkpt>
<trkpt lat="31.7901962" lon="34.9643486">
<ele>237.000015</ele>
<time>2010-01-01T02:12:44.000Z</time>
</trkpt>
<trkpt lat="31.7905646" lon="34.9641887">
<ele>235.000000</ele>
<time>2010-01-01T02:13:00.000Z</time>
</trkpt>
<trkpt lat="31.7908085" lon="34.9640922">
<ele>234.000000</ele>
<time>2010-01-01T02:13:10.000Z</time>
</trkpt>
<trkpt lat="31.7911960" lon="34.9639687">
<ele>231.000000</ele>
<time>2010-01-01T02:13:26.000Z</time>
</trkpt>
<trkpt lat="31.7914073" lon="34.9639383">
<ele>228.000000</ele>
<time>2010-01-01T02:13:35.000Z</time>
</trkpt>
<trkpt lat="31.7915016" lon="34.9639021">
<ele>227.000000</ele>
<time>2010-01-01T02:13:39.000Z</time>
</trkpt>
<trkpt lat="31.7916174" lon="34.9638345">
<ele>225.999985</ele>
<time>2010-01-01T02:13:44.000Z</time>
</trkpt>
<trkpt lat="31.7917029" lon="34.9637750">
<ele>225.000000</ele>
<time>2010-01-01T02:13:48.000Z</time>
</trkpt>
<trkpt lat="31.7918986" lon="34.9635952">
<ele>224.000000</ele>
<time>2010-01-01T02:13:58.000Z</time>
</trkpt>
<trkpt lat="31.7921419" lon="34.9632787">
<ele>225.000000</ele>
<time>2010-01-01T02:14:12.000Z</time>
</trkpt>
<trkpt lat="31.7922200" lon="34.9631985">
<ele>225.000000</ele>
<time>2010-01-01T02:14:16.000Z</time>
</trkpt>
<trkpt lat="31.7928256" lon="34.9627286">
<ele>216.000000</ele>
<time>2010-01-01T02:14:45.000Z</time>
</trkpt>
<trkpt lat="31.7930298" lon="34.9625083">
<ele>211.000000</ele>
<time>2010-01-01T02:14:57.000Z</time>
</trkpt>
<trkpt lat="31.7932203" lon="34.9622661">
<ele>211.000000</ele>
<time>2010-01-01T02:15:08.000Z</time>
</trkpt>
<trkpt lat="31.7934949" lon="34.9620082">
<ele>211.000000</ele>
<time>2010-01-01T02:15:22.000Z</time>
</trkpt>
<trkpt lat="31.7936210" lon="34.9619091">
<ele>211.000000</ele>
<time>2010-01-01T02:15:28.000Z</time>
</trkpt>
<trkpt lat="31.7939353" lon="34.9616040">
<ele>209.000000</ele>
<time>2010-01-01T02:15:44.000Z</time>
</trkpt>
<trkpt lat="31.7940973" lon="34.9613860">
<ele>207.999985</ele>
<time>2010-01-01T02:15:54.000Z</time>
</trkpt>
<trkpt lat="31.7942205" lon="34.9611871">
<ele>207.000000</ele>
<time>2010-01-01T02:16:02.000Z</time>
</trkpt>
<trkpt lat="31.7942608" lon="34.9611750">
<ele>207.000000</ele>
<time>2010-01-01T02:16:04.000Z</time>
</trkpt>
<trkpt lat="31.7943714" lon="34.9611775">
<ele>205.000015</ele>
<time>2010-01-01T02:16:09.000Z</time>
</trkpt>
<trkpt lat="31.7944122" lon="34.9611642">
<ele>204.000000</ele>
<time>2010-01-01T02:16:10.000Z</time>
</trkpt>
<trkpt lat="31.7944793" lon="34.9611052">
<ele>203.000000</ele>
<time>2010-01-01T02:16:14.000Z</time>
</trkpt>
<trkpt lat="31.7945780" lon="34.9609414">
<ele>203.000000</ele>
<time>2010-01-01T02:16:20.000Z</time>
</trkpt>
<trkpt lat="31.7947081" lon="34.9606578">
<ele>207.000000</ele>
<time>2010-01-01T02:16:31.000Z</time>
</trkpt>
<trkpt lat="31.7947767" lon="34.9606281">
<ele>207.000000</ele>
<time>2010-01-01T02:16:34.000Z</time>
</trkpt>
<trkpt lat="31.7948555" lon="34.9606433">
<ele>206.000000</ele>
<time>2010-01-01T02:16:37.000Z</time>
</trkpt>
<trkpt lat="31.7950571" lon="34.9607616">
<ele>200.999985</ele>
<time>2010-01-01T02:16:47.000Z</time>
</trkpt>
<trkpt lat="31.7955043" lon="34.9610648">
<ele>199.000000</ele>
<time>2010-01-01T02:17:07.000Z</time>
</trkpt>
<trkpt lat="31.7956297" lon="34.9610861">
<ele>199.000000</ele>
<time>2010-01-01T02:17:12.000Z</time>
</trkpt>
<trkpt lat="31.7959539" lon="34.9609710">
<ele>199.000000</ele>
<time>2010-01-01T02:17:26.000Z</time>
</trkpt>
<trkpt lat="31.7960623" lon="34.9610094">
<ele>200.000000</ele>
<time>2010-01-01T02:17:30.000Z</time>
</trkpt>
<trkpt lat="31.7961124" lon="34.9611379">
<ele>200.999985</ele>
<time>2010-01-01T02:17:35.000Z</time>
</trkpt>
<trkpt lat="31.7960887" lon="34.9612483">
<ele>202.000000</ele>
<time>2010-01-01T02:17:39.000Z</time>
</trkpt>
<trkpt lat="31.7959604" lon="34.9613992">
<ele>202.000000</ele>
<time>2010-01-01T02:17:46.000Z</time>
</trkpt>
<trkpt lat="31.7957860" lon="34.9615528">
<ele>202.000000</ele>
<time>2010-01-01T02:17:55.000Z</time>
</trkpt>
<trkpt lat="31.7956350" lon="34.9617698">
<ele>203.000000</ele>
<time>2010-01-01T02:18:05.000Z</time>
</trkpt>
<trkpt lat="31.7955642" lon="34.9619059">
<ele>202.000000</ele>
<time>2010-01-01T02:18:10.000Z</time>
</trkpt>
<trkpt lat="31.7955550" lon="34.9620307">
<ele>203.000000</ele>
<time>2010-01-01T02:18:14.000Z</time>
</trkpt>
<trkpt lat="31.7956902" lon="34.9624897">
<ele>209.000000</ele>
<time>2010-01-01T02:18:31.000Z</time>
</trkpt>
<trkpt lat="31.7957433" lon="34.9627644">
<ele>211.000000</ele>
<time>2010-01-01T02:18:40.000Z</time>
</trkpt>
<trkpt lat="31.7957707" lon="34.9629787">
<ele>213.000000</ele>
<time>2010-01-01T02:18:48.000Z</time>
</trkpt>
<trkpt lat="31.7958142" lon="34.9637769">
<ele>216.000000</ele>
<time>2010-01-01T02:19:15.000Z</time>
</trkpt>
<trkpt lat="31.7958076" lon="34.9641195">
<ele>217.000000</ele>
<time>2010-01-01T02:19:27.000Z</time>
</trkpt>
<trkpt lat="31.7956970" lon="34.9645486">
<ele>217.000000</ele>
<time>2010-01-01T02:19:42.000Z</time>
</trkpt>
<trkpt lat="31.7956375" lon="34.9646366">
<ele>218.000000</ele>
<time>2010-01-01T02:19:46.000Z</time>
</trkpt>
<trkpt lat="31.7953522" lon="34.9648184">
<ele>220.000000</ele>
<time>2010-01-01T02:19:59.000Z</time>
</trkpt>
<trkpt lat="31.7952380" lon="34.9649747">
<ele>221.000000</ele>
<time>2010-01-01T02:20:06.000Z</time>
</trkpt>
<trkpt lat="31.7951692" lon="34.9651608">
<ele>222.000000</ele>
<time>2010-01-01T02:20:13.000Z</time>
</trkpt>
<trkpt lat="31.7950814" lon="34.9653076">
<ele>223.000000</ele>
<time>2010-01-01T02:20:19.000Z</time>
</trkpt>
<trkpt lat="31.7949492" lon="34.9654762">
<ele>225.000000</ele>
<time>2010-01-01T02:20:26.000Z</time>
</trkpt>
<trkpt lat="31.7947728" lon="34.9657948">
<ele>229.000000</ele>
<time>2010-01-01T02:20:39.000Z</time>
</trkpt>
<trkpt lat="31.7945775" lon="34.9662342">
<ele>234.000000</ele>
<time>2010-01-01T02:20:56.000Z</time>
</trkpt>
<trkpt lat="31.7945331" lon="34.9663841">
<ele>236.000000</ele>
<time>2010-01-01T02:21:02.000Z</time>
</trkpt>
<trkpt lat="31.7944735" lon="34.9665084">
<ele>237.000015</ele>
<time>2010-01-01T02:21:07.000Z</time>
</trkpt>
<trkpt lat="31.7943131" lon="34.9667510">
<ele>240.000000</ele>
<time>2010-01-01T02:21:17.000Z</time>
</trkpt>
<trkpt lat="31.7942699" lon="34.9669148">
<ele>243.000000</ele>
<time>2010-01-01T02:21:23.000Z</time>
</trkpt>
<trkpt lat="31.7942695" lon="34.9670780">
<ele>242.000000</ele>
<time>2010-01-01T02:21:28.000Z</time>
</trkpt>
<trkpt lat="31.7943092" lon="34.9675517">
<ele>238.000000</ele>
<time>2010-01-01T02:21:45.000Z</time>
</trkpt>
<trkpt lat="31.7942554" lon="34.9683471">
<ele>241.000000</ele>
<time>2010-01-01T02:22:12.000Z</time>
</trkpt>
<trkpt lat="31.7942277" lon="34.9686423">
<ele>239.000000</ele>
<time>2010-01-01T02:22:22.000Z</time>
</trkpt>
<trkpt lat="31.7941775" lon="34.9689661">
<ele>237.000015</ele>
<time>2010-01-01T02:22:33.000Z</time>
</trkpt>
<trkpt lat="31.7941625" lon="34.9692964">
<ele>237.000015</ele>
<time>2010-01-01T02:22:44.000Z</time>
</trkpt>
<trkpt lat="31.7942144" lon="34.9694349">
<ele>236.000000</ele>
<time>2010-01-01T02:22:49.000Z</time>
</trkpt>
<trkpt lat="31.7943118" lon="34.9695752">
<ele>235.000000</ele>
<time>2010-01-01T02:22:56.000Z</time>
</trkpt>
<trkpt lat="31.7943998" lon="34.9696413">
<ele>234.000000</ele>
<time>2010-01-01T02:23:00.000Z</time>
</trkpt>
<trkpt lat="31.7945438" lon="34.9697054">
<ele>232.000000</ele>
<time>2010-01-01T02:23:06.000Z</time>
</trkpt>
<trkpt lat="31.7946749" lon="34.9697221">
<ele>230.000000</ele>
<time>2010-01-01T02:23:11.000Z</time>
</trkpt>
<trkpt lat="31.7949466" lon="34.9697864">
<ele>225.999985</ele>
<time>2010-01-01T02:23:22.000Z</time>
</trkpt>
<trkpt lat="31.7950406" lon="34.9698437">
<ele>225.000000</ele>
<time>2010-01-01T02:23:27.000Z</time>
</trkpt>
<trkpt lat="31.7951279" lon="34.9699223">
<ele>223.000000</ele>
<time>2010-01-01T02:23:31.000Z</time>
</trkpt>
<trkpt lat="31.7952367" lon="34.9700384">
<ele>222.000000</ele>
<time>2010-01-01T02:23:37.000Z</time>
</trkpt>
<trkpt lat="31.7953152" lon="34.9701500">
<ele>222.000000</ele>
<time>2010-01-01T02:23:42.000Z</time>
</trkpt>
<trkpt lat="31.7954180" lon="34.9703723">
<ele>222.000000</ele>
<time>2010-01-01T02:23:50.000Z</time>
</trkpt>
<trkpt lat="31.7954831" lon="34.9704670">
<ele>221.000000</ele>
<time>2010-01-01T02:23:55.000Z</time>
</trkpt>
<trkpt lat="31.7955945" lon="34.9705788">
<ele>219.000015</ele>
<time>2010-01-01T02:24:00.000Z</time>
</trkpt>
<trkpt lat="31.7958723" lon="34.9709567">
<ele>218.000000</ele>
<time>2010-01-01T02:24:17.000Z</time>
</trkpt>
<trkpt lat="31.7959773" lon="34.9711759">
<ele>218.000000</ele>
<time>2010-01-01T02:24:26.000Z</time>
</trkpt>
<trkpt lat="31.7959896" lon="34.9714178">
<ele>219.000015</ele>
<time>2010-01-01T02:24:34.000Z</time>
</trkpt>
<trkpt lat="31.7959542" lon="34.9717779">
<ele>217.000000</ele>
<time>2010-01-01T02:24:47.000Z</time>
</trkpt>
<trkpt lat="31.7958533" lon="34.9720831">
<ele>216.000000</ele>
<time>2010-01-01T02:24:58.000Z</time>
</trkpt>
<trkpt lat="31.7957153" lon="34.9723325">
<ele>217.000000</ele>
<time>2010-01-01T02:25:08.000Z</time>
</trkpt>
<trkpt lat="31.7956408" lon="34.9725832">
<ele>216.000000</ele>
<time>2010-01-01T02:25:17.000Z</time>
</trkpt>
<trkpt lat="31.7956156" lon="34.9730426">
<ele>212.000015</ele>
<time>2010-01-01T02:25:32.000Z</time>
</trkpt>
<trkpt lat="31.7955360" lon="34.9739777">
<ele>212.000015</ele>
<time>2010-01-01T02:26:04.000Z</time>
</trkpt>
<trkpt lat="31.7954564" lon="34.9739027">
<ele>214.000000</ele>
<time>2010-01-01T02:26:06.000Z</time>
</trkpt>
</trkseg>
</trk>
</gpx>
